<?xml version="1.0" encoding="UTF-8" standalone="no" ?>
<gpx xmlns="http://www.topografix.com/GPX/1/1" xmlns:xsi="http://www.w3.org/2001/XMLSchema-instance" xsi:schemaLocation="http://www.topografix.com/GPX/1/1 http://www.topografix.com/GPX/1/1/gpx.xsd" version="1.1" creator="VisuGPX - https://www.visugpx.com">
  <metadata>
    <name>aber</name>
    <desc><![CDATA[le parcours]]></desc>
  </metadata>
  <trk>
    <name><![CDATA[14272787-082B_n AberWrach-18346114]]></name>
    <trkseg>
      <trkpt lat="48.37089" lon="-4.64349">
        <ele>58</ele>
        <time>2024-02-11T21:11:22Z</time>
      </trkpt>
      <trkpt lat="48.37093" lon="-4.64327">
        <ele>58</ele>
        <time>2024-02-11T21:11:25Z</time>
      </trkpt>
      <trkpt lat="48.37098" lon="-4.6432">
        <ele>58</ele>
        <time>2024-02-11T21:11:26Z</time>
      </trkpt>
      <trkpt lat="48.3712" lon="-4.64327">
        <ele>58</ele>
        <time>2024-02-11T21:11:30Z</time>
      </trkpt>
      <trkpt lat="48.37119" lon="-4.64337">
        <ele>58</ele>
        <time>2024-02-11T21:11:31Z</time>
      </trkpt>
      <trkpt lat="48.37177" lon="-4.64363">
        <ele>57</ele>
        <time>2024-02-11T21:11:42Z</time>
      </trkpt>
      <trkpt lat="48.37299" lon="-4.64406">
        <ele>56</ele>
        <time>2024-02-11T21:12:04Z</time>
      </trkpt>
      <trkpt lat="48.37319" lon="-4.64405">
        <ele>56</ele>
        <time>2024-02-11T21:12:08Z</time>
      </trkpt>
      <trkpt lat="48.3732" lon="-4.64395">
        <ele>56</ele>
        <time>2024-02-11T21:12:09Z</time>
      </trkpt>
      <trkpt lat="48.37324" lon="-4.64393">
        <ele>56</ele>
        <time>2024-02-11T21:12:10Z</time>
      </trkpt>
      <trkpt lat="48.37328" lon="-4.64395">
        <ele>56</ele>
        <time>2024-02-11T21:12:10Z</time>
      </trkpt>
      <trkpt lat="48.37373" lon="-4.64324">
        <ele>55</ele>
        <time>2024-02-11T21:12:22Z</time>
      </trkpt>
      <trkpt lat="48.37385" lon="-4.64311">
        <ele>55</ele>
        <time>2024-02-11T21:12:25Z</time>
      </trkpt>
      <trkpt lat="48.3741" lon="-4.64305">
        <ele>54</ele>
        <time>2024-02-11T21:12:29Z</time>
      </trkpt>
      <trkpt lat="48.37429" lon="-4.64293">
        <ele>54</ele>
        <time>2024-02-11T21:12:33Z</time>
      </trkpt>
      <trkpt lat="48.37437" lon="-4.6429">
        <ele>54</ele>
        <time>2024-02-11T21:12:34Z</time>
      </trkpt>
      <trkpt lat="48.37459" lon="-4.64299">
        <ele>53</ele>
        <time>2024-02-11T21:12:38Z</time>
      </trkpt>
      <trkpt lat="48.37468" lon="-4.64306">
        <ele>53</ele>
        <time>2024-02-11T21:12:40Z</time>
      </trkpt>
      <trkpt lat="48.37475" lon="-4.64344">
        <ele>54</ele>
        <time>2024-02-11T21:12:45Z</time>
      </trkpt>
      <trkpt lat="48.37521" lon="-4.64331">
        <ele>53</ele>
        <time>2024-02-11T21:12:53Z</time>
      </trkpt>
      <trkpt lat="48.37533" lon="-4.64322">
        <ele>53</ele>
        <time>2024-02-11T21:12:56Z</time>
      </trkpt>
      <trkpt lat="48.37582" lon="-4.6423">
        <ele>52</ele>
        <time>2024-02-11T21:13:09Z</time>
      </trkpt>
      <trkpt lat="48.37629" lon="-4.64185">
        <ele>51</ele>
        <time>2024-02-11T21:13:19Z</time>
      </trkpt>
      <trkpt lat="48.37628" lon="-4.64177">
        <ele>51</ele>
        <time>2024-02-11T21:13:20Z</time>
      </trkpt>
      <trkpt lat="48.3763" lon="-4.64174">
        <ele>51</ele>
        <time>2024-02-11T21:13:21Z</time>
      </trkpt>
      <trkpt lat="48.37634" lon="-4.64173">
        <ele>51</ele>
        <time>2024-02-11T21:13:22Z</time>
      </trkpt>
      <trkpt lat="48.37636" lon="-4.64176">
        <ele>51</ele>
        <time>2024-02-11T21:13:22Z</time>
      </trkpt>
      <trkpt lat="48.37658" lon="-4.6415">
        <ele>50</ele>
        <time>2024-02-11T21:13:27Z</time>
      </trkpt>
      <trkpt lat="48.37669" lon="-4.6413">
        <ele>50</ele>
        <time>2024-02-11T21:13:30Z</time>
      </trkpt>
      <trkpt lat="48.37879" lon="-4.63682">
        <ele>47</ele>
        <time>2024-02-11T21:14:35Z</time>
      </trkpt>
      <trkpt lat="48.37898" lon="-4.63627">
        <ele>47</ele>
        <time>2024-02-11T21:14:42Z</time>
      </trkpt>
      <trkpt lat="48.37911" lon="-4.63564">
        <ele>48</ele>
        <time>2024-02-11T21:14:50Z</time>
      </trkpt>
      <trkpt lat="48.37916" lon="-4.63518">
        <ele>48</ele>
        <time>2024-02-11T21:14:56Z</time>
      </trkpt>
      <trkpt lat="48.37916" lon="-4.63465">
        <ele>48</ele>
        <time>2024-02-11T21:15:02Z</time>
      </trkpt>
      <trkpt lat="48.37909" lon="-4.63405">
        <ele>49</ele>
        <time>2024-02-11T21:15:09Z</time>
      </trkpt>
      <trkpt lat="48.379" lon="-4.63361">
        <ele>49</ele>
        <time>2024-02-11T21:15:14Z</time>
      </trkpt>
      <trkpt lat="48.37884" lon="-4.63315">
        <ele>48</ele>
        <time>2024-02-11T21:15:21Z</time>
      </trkpt>
      <trkpt lat="48.37811" lon="-4.63138">
        <ele>48</ele>
        <time>2024-02-11T21:15:45Z</time>
      </trkpt>
      <trkpt lat="48.37789" lon="-4.63075">
        <ele>49</ele>
        <time>2024-02-11T21:15:54Z</time>
      </trkpt>
      <trkpt lat="48.37772" lon="-4.63015">
        <ele>50</ele>
        <time>2024-02-11T21:16:01Z</time>
      </trkpt>
      <trkpt lat="48.3776" lon="-4.62947">
        <ele>50</ele>
        <time>2024-02-11T21:16:10Z</time>
      </trkpt>
      <trkpt lat="48.37755" lon="-4.62903">
        <ele>50</ele>
        <time>2024-02-11T21:16:15Z</time>
      </trkpt>
      <trkpt lat="48.37753" lon="-4.62865">
        <ele>49</ele>
        <time>2024-02-11T21:16:19Z</time>
      </trkpt>
      <trkpt lat="48.37754" lon="-4.62826">
        <ele>49</ele>
        <time>2024-02-11T21:16:24Z</time>
      </trkpt>
      <trkpt lat="48.37758" lon="-4.62795">
        <ele>49</ele>
        <time>2024-02-11T21:16:28Z</time>
      </trkpt>
      <trkpt lat="48.37771" lon="-4.62738">
        <ele>48</ele>
        <time>2024-02-11T21:16:35Z</time>
      </trkpt>
      <trkpt lat="48.37794" lon="-4.62686">
        <ele>47</ele>
        <time>2024-02-11T21:16:42Z</time>
      </trkpt>
      <trkpt lat="48.37823" lon="-4.62633">
        <ele>47</ele>
        <time>2024-02-11T21:16:50Z</time>
      </trkpt>
      <trkpt lat="48.37844" lon="-4.62604">
        <ele>49</ele>
        <time>2024-02-11T21:16:55Z</time>
      </trkpt>
      <trkpt lat="48.37927" lon="-4.62504">
        <ele>53</ele>
        <time>2024-02-11T21:17:14Z</time>
      </trkpt>
      <trkpt lat="48.37962" lon="-4.62431">
        <ele>55</ele>
        <time>2024-02-11T21:17:25Z</time>
      </trkpt>
      <trkpt lat="48.38009" lon="-4.62317">
        <ele>58</ele>
        <time>2024-02-11T21:17:41Z</time>
      </trkpt>
      <trkpt lat="48.38012" lon="-4.62304">
        <ele>58</ele>
        <time>2024-02-11T21:17:42Z</time>
      </trkpt>
      <trkpt lat="48.3803" lon="-4.62271">
        <ele>60</ele>
        <time>2024-02-11T21:17:48Z</time>
      </trkpt>
      <trkpt lat="48.38051" lon="-4.62253">
        <ele>61</ele>
        <time>2024-02-11T21:17:52Z</time>
      </trkpt>
      <trkpt lat="48.38101" lon="-4.62229">
        <ele>63</ele>
        <time>2024-02-11T21:18:01Z</time>
      </trkpt>
      <trkpt lat="48.38121" lon="-4.62215">
        <ele>65</ele>
        <time>2024-02-11T21:18:05Z</time>
      </trkpt>
      <trkpt lat="48.3813" lon="-4.62204">
        <ele>65</ele>
        <time>2024-02-11T21:18:07Z</time>
      </trkpt>
      <trkpt lat="48.38149" lon="-4.62158">
        <ele>68</ele>
        <time>2024-02-11T21:18:14Z</time>
      </trkpt>
      <trkpt lat="48.38149" lon="-4.62142">
        <ele>68</ele>
        <time>2024-02-11T21:18:15Z</time>
      </trkpt>
      <trkpt lat="48.38155" lon="-4.62119">
        <ele>69</ele>
        <time>2024-02-11T21:18:18Z</time>
      </trkpt>
      <trkpt lat="48.38163" lon="-4.62107">
        <ele>69</ele>
        <time>2024-02-11T21:18:20Z</time>
      </trkpt>
      <trkpt lat="48.38186" lon="-4.62098">
        <ele>71</ele>
        <time>2024-02-11T21:18:25Z</time>
      </trkpt>
      <trkpt lat="48.3821" lon="-4.62119">
        <ele>72</ele>
        <time>2024-02-11T21:18:30Z</time>
      </trkpt>
      <trkpt lat="48.38223" lon="-4.62144">
        <ele>72</ele>
        <time>2024-02-11T21:18:33Z</time>
      </trkpt>
      <trkpt lat="48.3824" lon="-4.62189">
        <ele>72</ele>
        <time>2024-02-11T21:18:39Z</time>
      </trkpt>
      <trkpt lat="48.38253" lon="-4.62191">
        <ele>73</ele>
        <time>2024-02-11T21:18:42Z</time>
      </trkpt>
      <trkpt lat="48.38332" lon="-4.62167">
        <ele>74</ele>
        <time>2024-02-11T21:18:56Z</time>
      </trkpt>
      <trkpt lat="48.38401" lon="-4.62136">
        <ele>75</ele>
        <time>2024-02-11T21:19:09Z</time>
      </trkpt>
      <trkpt lat="48.38465" lon="-4.62104">
        <ele>76</ele>
        <time>2024-02-11T21:19:21Z</time>
      </trkpt>
      <trkpt lat="48.3851" lon="-4.62078">
        <ele>77</ele>
        <time>2024-02-11T21:19:29Z</time>
      </trkpt>
      <trkpt lat="48.3851" lon="-4.6207">
        <ele>78</ele>
        <time>2024-02-11T21:19:30Z</time>
      </trkpt>
      <trkpt lat="48.38516" lon="-4.62059">
        <ele>78</ele>
        <time>2024-02-11T21:19:32Z</time>
      </trkpt>
      <trkpt lat="48.38524" lon="-4.62059">
        <ele>78</ele>
        <time>2024-02-11T21:19:34Z</time>
      </trkpt>
      <trkpt lat="48.3853" lon="-4.62068">
        <ele>78</ele>
        <time>2024-02-11T21:19:35Z</time>
      </trkpt>
      <trkpt lat="48.38647" lon="-4.62005">
        <ele>80</ele>
        <time>2024-02-11T21:19:57Z</time>
      </trkpt>
      <trkpt lat="48.38704" lon="-4.61959">
        <ele>79</ele>
        <time>2024-02-11T21:20:09Z</time>
      </trkpt>
      <trkpt lat="48.38859" lon="-4.61781">
        <ele>76</ele>
        <time>2024-02-11T21:20:43Z</time>
      </trkpt>
      <trkpt lat="48.38961" lon="-4.61694">
        <ele>75</ele>
        <time>2024-02-11T21:21:04Z</time>
      </trkpt>
      <trkpt lat="48.39135" lon="-4.61591">
        <ele>79</ele>
        <time>2024-02-11T21:21:37Z</time>
      </trkpt>
      <trkpt lat="48.3919" lon="-4.61568">
        <ele>78</ele>
        <time>2024-02-11T21:21:48Z</time>
      </trkpt>
      <trkpt lat="48.39221" lon="-4.6156">
        <ele>78</ele>
        <time>2024-02-11T21:21:53Z</time>
      </trkpt>
      <trkpt lat="48.39289" lon="-4.61555">
        <ele>77</ele>
        <time>2024-02-11T21:22:05Z</time>
      </trkpt>
      <trkpt lat="48.39347" lon="-4.61568">
        <ele>76</ele>
        <time>2024-02-11T21:22:16Z</time>
      </trkpt>
      <trkpt lat="48.3939" lon="-4.61585">
        <ele>75</ele>
        <time>2024-02-11T21:22:24Z</time>
      </trkpt>
      <trkpt lat="48.39565" lon="-4.61677">
        <ele>71</ele>
        <time>2024-02-11T21:22:57Z</time>
      </trkpt>
      <trkpt lat="48.39827" lon="-4.61775">
        <ele>73</ele>
        <time>2024-02-11T21:23:45Z</time>
      </trkpt>
      <trkpt lat="48.39899" lon="-4.61801">
        <ele>75</ele>
        <time>2024-02-11T21:23:58Z</time>
      </trkpt>
      <trkpt lat="48.39972" lon="-4.61824">
        <ele>76</ele>
        <time>2024-02-11T21:24:11Z</time>
      </trkpt>
      <trkpt lat="48.40004" lon="-4.61828">
        <ele>76</ele>
        <time>2024-02-11T21:24:17Z</time>
      </trkpt>
      <trkpt lat="48.40248" lon="-4.61836">
        <ele>78</ele>
        <time>2024-02-11T21:25:00Z</time>
      </trkpt>
      <trkpt lat="48.4028" lon="-4.61842">
        <ele>79</ele>
        <time>2024-02-11T21:25:06Z</time>
      </trkpt>
      <trkpt lat="48.40315" lon="-4.61856">
        <ele>80</ele>
        <time>2024-02-11T21:25:12Z</time>
      </trkpt>
      <trkpt lat="48.40415" lon="-4.61912">
        <ele>79</ele>
        <time>2024-02-11T21:25:31Z</time>
      </trkpt>
      <trkpt lat="48.40468" lon="-4.61946">
        <ele>81</ele>
        <time>2024-02-11T21:25:42Z</time>
      </trkpt>
      <trkpt lat="48.40612" lon="-4.62019">
        <ele>78</ele>
        <time>2024-02-11T21:26:09Z</time>
      </trkpt>
      <trkpt lat="48.40803" lon="-4.62139">
        <ele>79</ele>
        <time>2024-02-11T21:26:46Z</time>
      </trkpt>
      <trkpt lat="48.4091" lon="-4.622">
        <ele>84</ele>
        <time>2024-02-11T21:27:06Z</time>
      </trkpt>
      <trkpt lat="48.41007" lon="-4.62239">
        <ele>85</ele>
        <time>2024-02-11T21:27:24Z</time>
      </trkpt>
      <trkpt lat="48.41102" lon="-4.62261">
        <ele>85</ele>
        <time>2024-02-11T21:27:41Z</time>
      </trkpt>
      <trkpt lat="48.41299" lon="-4.62285">
        <ele>82</ele>
        <time>2024-02-11T21:28:16Z</time>
      </trkpt>
      <trkpt lat="48.41354" lon="-4.62297">
        <ele>80</ele>
        <time>2024-02-11T21:28:26Z</time>
      </trkpt>
      <trkpt lat="48.41665" lon="-4.62402">
        <ele>78</ele>
        <time>2024-02-11T21:29:23Z</time>
      </trkpt>
      <trkpt lat="48.41686" lon="-4.62411">
        <ele>79</ele>
        <time>2024-02-11T21:29:26Z</time>
      </trkpt>
      <trkpt lat="48.41829" lon="-4.62493">
        <ele>87</ele>
        <time>2024-02-11T21:29:54Z</time>
      </trkpt>
      <trkpt lat="48.42001" lon="-4.62581">
        <ele>91</ele>
        <time>2024-02-11T21:30:26Z</time>
      </trkpt>
      <trkpt lat="48.42044" lon="-4.62586">
        <ele>91</ele>
        <time>2024-02-11T21:30:34Z</time>
      </trkpt>
      <trkpt lat="48.42053" lon="-4.62579">
        <ele>90</ele>
        <time>2024-02-11T21:30:36Z</time>
      </trkpt>
      <trkpt lat="48.42063" lon="-4.62576">
        <ele>90</ele>
        <time>2024-02-11T21:30:37Z</time>
      </trkpt>
      <trkpt lat="48.42071" lon="-4.6257">
        <ele>90</ele>
        <time>2024-02-11T21:30:39Z</time>
      </trkpt>
      <trkpt lat="48.42095" lon="-4.62536">
        <ele>88</ele>
        <time>2024-02-11T21:30:45Z</time>
      </trkpt>
      <trkpt lat="48.42146" lon="-4.6241">
        <ele>79</ele>
        <time>2024-02-11T21:31:02Z</time>
      </trkpt>
      <trkpt lat="48.42283" lon="-4.62128">
        <ele>69</ele>
        <time>2024-02-11T21:31:43Z</time>
      </trkpt>
      <trkpt lat="48.4232" lon="-4.62047">
        <ele>67</ele>
        <time>2024-02-11T21:31:55Z</time>
      </trkpt>
      <trkpt lat="48.42347" lon="-4.61977">
        <ele>63</ele>
        <time>2024-02-11T21:32:05Z</time>
      </trkpt>
      <trkpt lat="48.42365" lon="-4.61923">
        <ele>60</ele>
        <time>2024-02-11T21:32:12Z</time>
      </trkpt>
      <trkpt lat="48.42391" lon="-4.61818">
        <ele>56</ele>
        <time>2024-02-11T21:32:25Z</time>
      </trkpt>
      <trkpt lat="48.42506" lon="-4.61271">
        <ele>46</ele>
        <time>2024-02-11T21:33:33Z</time>
      </trkpt>
      <trkpt lat="48.42525" lon="-4.611">
        <ele>44</ele>
        <time>2024-02-11T21:33:53Z</time>
      </trkpt>
      <trkpt lat="48.42532" lon="-4.61016">
        <ele>41</ele>
        <time>2024-02-11T21:34:03Z</time>
      </trkpt>
      <trkpt lat="48.42534" lon="-4.60887">
        <ele>38</ele>
        <time>2024-02-11T21:34:18Z</time>
      </trkpt>
      <trkpt lat="48.42531" lon="-4.60796">
        <ele>39</ele>
        <time>2024-02-11T21:34:29Z</time>
      </trkpt>
      <trkpt lat="48.42538" lon="-4.60688">
        <ele>39</ele>
        <time>2024-02-11T21:34:42Z</time>
      </trkpt>
      <trkpt lat="48.42531" lon="-4.60671">
        <ele>39</ele>
        <time>2024-02-11T21:34:44Z</time>
      </trkpt>
      <trkpt lat="48.42532" lon="-4.60652">
        <ele>40</ele>
        <time>2024-02-11T21:34:47Z</time>
      </trkpt>
      <trkpt lat="48.42537" lon="-4.60636">
        <ele>40</ele>
        <time>2024-02-11T21:34:49Z</time>
      </trkpt>
      <trkpt lat="48.42546" lon="-4.60626">
        <ele>39</ele>
        <time>2024-02-11T21:34:51Z</time>
      </trkpt>
      <trkpt lat="48.42553" lon="-4.60622">
        <ele>39</ele>
        <time>2024-02-11T21:34:52Z</time>
      </trkpt>
      <trkpt lat="48.42568" lon="-4.60587">
        <ele>39</ele>
        <time>2024-02-11T21:34:57Z</time>
      </trkpt>
      <trkpt lat="48.42585" lon="-4.60533">
        <ele>37</ele>
        <time>2024-02-11T21:35:04Z</time>
      </trkpt>
      <trkpt lat="48.42606" lon="-4.60451">
        <ele>36</ele>
        <time>2024-02-11T21:35:14Z</time>
      </trkpt>
      <trkpt lat="48.42639" lon="-4.6035">
        <ele>36</ele>
        <time>2024-02-11T21:35:28Z</time>
      </trkpt>
      <trkpt lat="48.4267" lon="-4.60269">
        <ele>35</ele>
        <time>2024-02-11T21:35:39Z</time>
      </trkpt>
      <trkpt lat="48.42719" lon="-4.60153">
        <ele>34</ele>
        <time>2024-02-11T21:35:55Z</time>
      </trkpt>
      <trkpt lat="48.42744" lon="-4.60102">
        <ele>34</ele>
        <time>2024-02-11T21:36:02Z</time>
      </trkpt>
      <trkpt lat="48.42771" lon="-4.60054">
        <ele>34</ele>
        <time>2024-02-11T21:36:10Z</time>
      </trkpt>
      <trkpt lat="48.42799" lon="-4.59985">
        <ele>36</ele>
        <time>2024-02-11T21:36:19Z</time>
      </trkpt>
      <trkpt lat="48.42804" lon="-4.59959">
        <ele>36</ele>
        <time>2024-02-11T21:36:23Z</time>
      </trkpt>
      <trkpt lat="48.42804" lon="-4.59934">
        <ele>36</ele>
        <time>2024-02-11T21:36:26Z</time>
      </trkpt>
      <trkpt lat="48.4281" lon="-4.59918">
        <ele>37</ele>
        <time>2024-02-11T21:36:28Z</time>
      </trkpt>
      <trkpt lat="48.42817" lon="-4.59911">
        <ele>37</ele>
        <time>2024-02-11T21:36:29Z</time>
      </trkpt>
      <trkpt lat="48.42828" lon="-4.59907">
        <ele>37</ele>
        <time>2024-02-11T21:36:31Z</time>
      </trkpt>
      <trkpt lat="48.42842" lon="-4.59912">
        <ele>37</ele>
        <time>2024-02-11T21:36:34Z</time>
      </trkpt>
      <trkpt lat="48.42848" lon="-4.59919">
        <ele>37</ele>
        <time>2024-02-11T21:36:35Z</time>
      </trkpt>
      <trkpt lat="48.42852" lon="-4.59928">
        <ele>37</ele>
        <time>2024-02-11T21:36:36Z</time>
      </trkpt>
      <trkpt lat="48.42855" lon="-4.59947">
        <ele>37</ele>
        <time>2024-02-11T21:36:39Z</time>
      </trkpt>
      <trkpt lat="48.42863" lon="-4.59968">
        <ele>37</ele>
        <time>2024-02-11T21:36:42Z</time>
      </trkpt>
      <trkpt lat="48.42898" lon="-4.60023">
        <ele>37</ele>
        <time>2024-02-11T21:36:51Z</time>
      </trkpt>
      <trkpt lat="48.42858" lon="-4.59984">
        <ele>36</ele>
        <time>2024-02-11T21:36:59Z</time>
      </trkpt>
      <trkpt lat="48.42845" lon="-4.59978">
        <ele>36</ele>
        <time>2024-02-11T21:37:02Z</time>
      </trkpt>
      <trkpt lat="48.42834" lon="-4.59985">
        <ele>35</ele>
        <time>2024-02-11T21:37:04Z</time>
      </trkpt>
      <trkpt lat="48.42822" lon="-4.59984">
        <ele>35</ele>
        <time>2024-02-11T21:37:06Z</time>
      </trkpt>
      <trkpt lat="48.42811" lon="-4.59975">
        <ele>36</ele>
        <time>2024-02-11T21:37:08Z</time>
      </trkpt>
      <trkpt lat="48.42804" lon="-4.59959">
        <ele>36</ele>
        <time>2024-02-11T21:37:10Z</time>
      </trkpt>
      <trkpt lat="48.42804" lon="-4.59934">
        <ele>36</ele>
        <time>2024-02-11T21:37:13Z</time>
      </trkpt>
      <trkpt lat="48.4281" lon="-4.59918">
        <ele>37</ele>
        <time>2024-02-11T21:37:15Z</time>
      </trkpt>
      <trkpt lat="48.42817" lon="-4.59911">
        <ele>37</ele>
        <time>2024-02-11T21:37:17Z</time>
      </trkpt>
      <trkpt lat="48.42828" lon="-4.59907">
        <ele>37</ele>
        <time>2024-02-11T21:37:19Z</time>
      </trkpt>
      <trkpt lat="48.42835" lon="-4.59908">
        <ele>37</ele>
        <time>2024-02-11T21:37:20Z</time>
      </trkpt>
      <trkpt lat="48.42848" lon="-4.59919">
        <ele>37</ele>
        <time>2024-02-11T21:37:23Z</time>
      </trkpt>
      <trkpt lat="48.42852" lon="-4.59928">
        <ele>37</ele>
        <time>2024-02-11T21:37:24Z</time>
      </trkpt>
      <trkpt lat="48.42855" lon="-4.59947">
        <ele>37</ele>
        <time>2024-02-11T21:37:26Z</time>
      </trkpt>
      <trkpt lat="48.42863" lon="-4.59968">
        <ele>37</ele>
        <time>2024-02-11T21:37:29Z</time>
      </trkpt>
      <trkpt lat="48.42997" lon="-4.60174">
        <ele>36</ele>
        <time>2024-02-11T21:38:03Z</time>
      </trkpt>
      <trkpt lat="48.4303" lon="-4.60229">
        <ele>37</ele>
        <time>2024-02-11T21:38:12Z</time>
      </trkpt>
      <trkpt lat="48.43061" lon="-4.60288">
        <ele>38</ele>
        <time>2024-02-11T21:38:21Z</time>
      </trkpt>
      <trkpt lat="48.43084" lon="-4.60344">
        <ele>38</ele>
        <time>2024-02-11T21:38:29Z</time>
      </trkpt>
      <trkpt lat="48.43117" lon="-4.60451">
        <ele>41</ele>
        <time>2024-02-11T21:38:43Z</time>
      </trkpt>
      <trkpt lat="48.43131" lon="-4.60531">
        <ele>42</ele>
        <time>2024-02-11T21:38:52Z</time>
      </trkpt>
      <trkpt lat="48.43141" lon="-4.60654">
        <ele>42</ele>
        <time>2024-02-11T21:39:07Z</time>
      </trkpt>
      <trkpt lat="48.43144" lon="-4.60808">
        <ele>40</ele>
        <time>2024-02-11T21:39:25Z</time>
      </trkpt>
      <trkpt lat="48.43153" lon="-4.60867">
        <ele>39</ele>
        <time>2024-02-11T21:39:32Z</time>
      </trkpt>
      <trkpt lat="48.43204" lon="-4.61052">
        <ele>35</ele>
        <time>2024-02-11T21:39:56Z</time>
      </trkpt>
      <trkpt lat="48.43218" lon="-4.61061">
        <ele>35</ele>
        <time>2024-02-11T21:39:59Z</time>
      </trkpt>
      <trkpt lat="48.43239" lon="-4.6106">
        <ele>35</ele>
        <time>2024-02-11T21:40:02Z</time>
      </trkpt>
      <trkpt lat="48.43256" lon="-4.61044">
        <ele>36</ele>
        <time>2024-02-11T21:40:06Z</time>
      </trkpt>
      <trkpt lat="48.43267" lon="-4.61027">
        <ele>36</ele>
        <time>2024-02-11T21:40:09Z</time>
      </trkpt>
      <trkpt lat="48.43304" lon="-4.60922">
        <ele>39</ele>
        <time>2024-02-11T21:40:23Z</time>
      </trkpt>
      <trkpt lat="48.43318" lon="-4.60895">
        <ele>40</ele>
        <time>2024-02-11T21:40:27Z</time>
      </trkpt>
      <trkpt lat="48.43375" lon="-4.60813">
        <ele>43</ele>
        <time>2024-02-11T21:40:41Z</time>
      </trkpt>
      <trkpt lat="48.43399" lon="-4.60774">
        <ele>45</ele>
        <time>2024-02-11T21:40:47Z</time>
      </trkpt>
      <trkpt lat="48.43442" lon="-4.60645">
        <ele>54</ele>
        <time>2024-02-11T21:41:04Z</time>
      </trkpt>
      <trkpt lat="48.43464" lon="-4.60612">
        <ele>55</ele>
        <time>2024-02-11T21:41:10Z</time>
      </trkpt>
      <trkpt lat="48.43504" lon="-4.60574">
        <ele>57</ele>
        <time>2024-02-11T21:41:18Z</time>
      </trkpt>
      <trkpt lat="48.43601" lon="-4.60489">
        <ele>63</ele>
        <time>2024-02-11T21:41:38Z</time>
      </trkpt>
      <trkpt lat="48.43628" lon="-4.60458">
        <ele>64</ele>
        <time>2024-02-11T21:41:44Z</time>
      </trkpt>
      <trkpt lat="48.4365" lon="-4.60424">
        <ele>66</ele>
        <time>2024-02-11T21:41:50Z</time>
      </trkpt>
      <trkpt lat="48.4367" lon="-4.60375">
        <ele>67</ele>
        <time>2024-02-11T21:41:57Z</time>
      </trkpt>
      <trkpt lat="48.43685" lon="-4.60322">
        <ele>67</ele>
        <time>2024-02-11T21:42:03Z</time>
      </trkpt>
      <trkpt lat="48.43692" lon="-4.60286">
        <ele>67</ele>
        <time>2024-02-11T21:42:08Z</time>
      </trkpt>
      <trkpt lat="48.4376" lon="-4.59853">
        <ele>75</ele>
        <time>2024-02-11T21:43:00Z</time>
      </trkpt>
      <trkpt lat="48.43758" lon="-4.59829">
        <ele>75</ele>
        <time>2024-02-11T21:43:03Z</time>
      </trkpt>
      <trkpt lat="48.43746" lon="-4.59803">
        <ele>75</ele>
        <time>2024-02-11T21:43:07Z</time>
      </trkpt>
      <trkpt lat="48.43737" lon="-4.59774">
        <ele>76</ele>
        <time>2024-02-11T21:43:11Z</time>
      </trkpt>
      <trkpt lat="48.43742" lon="-4.5968">
        <ele>78</ele>
        <time>2024-02-11T21:43:22Z</time>
      </trkpt>
      <trkpt lat="48.43741" lon="-4.59594">
        <ele>78</ele>
        <time>2024-02-11T21:43:32Z</time>
      </trkpt>
      <trkpt lat="48.43744" lon="-4.59524">
        <ele>78</ele>
        <time>2024-02-11T21:43:40Z</time>
      </trkpt>
      <trkpt lat="48.43747" lon="-4.59506">
        <ele>78</ele>
        <time>2024-02-11T21:43:43Z</time>
      </trkpt>
      <trkpt lat="48.43757" lon="-4.59475">
        <ele>78</ele>
        <time>2024-02-11T21:43:47Z</time>
      </trkpt>
      <trkpt lat="48.4379" lon="-4.59401">
        <ele>77</ele>
        <time>2024-02-11T21:43:57Z</time>
      </trkpt>
      <trkpt lat="48.43797" lon="-4.59379">
        <ele>77</ele>
        <time>2024-02-11T21:44:00Z</time>
      </trkpt>
      <trkpt lat="48.43816" lon="-4.59294">
        <ele>77</ele>
        <time>2024-02-11T21:44:11Z</time>
      </trkpt>
      <trkpt lat="48.4384" lon="-4.5922">
        <ele>78</ele>
        <time>2024-02-11T21:44:20Z</time>
      </trkpt>
      <trkpt lat="48.43853" lon="-4.59191">
        <ele>79</ele>
        <time>2024-02-11T21:44:24Z</time>
      </trkpt>
      <trkpt lat="48.43877" lon="-4.59147">
        <ele>79</ele>
        <time>2024-02-11T21:44:31Z</time>
      </trkpt>
      <trkpt lat="48.43976" lon="-4.58994">
        <ele>81</ele>
        <time>2024-02-11T21:44:56Z</time>
      </trkpt>
      <trkpt lat="48.43983" lon="-4.58964">
        <ele>81</ele>
        <time>2024-02-11T21:45:00Z</time>
      </trkpt>
      <trkpt lat="48.43981" lon="-4.58943">
        <ele>82</ele>
        <time>2024-02-11T21:45:03Z</time>
      </trkpt>
      <trkpt lat="48.43945" lon="-4.58823">
        <ele>82</ele>
        <time>2024-02-11T21:45:18Z</time>
      </trkpt>
      <trkpt lat="48.43941" lon="-4.58795">
        <ele>82</ele>
        <time>2024-02-11T21:45:22Z</time>
      </trkpt>
      <trkpt lat="48.43941" lon="-4.58731">
        <ele>83</ele>
        <time>2024-02-11T21:45:29Z</time>
      </trkpt>
      <trkpt lat="48.43949" lon="-4.58677">
        <ele>85</ele>
        <time>2024-02-11T21:45:36Z</time>
      </trkpt>
      <trkpt lat="48.43963" lon="-4.58637">
        <ele>86</ele>
        <time>2024-02-11T21:45:41Z</time>
      </trkpt>
      <trkpt lat="48.44009" lon="-4.58548">
        <ele>86</ele>
        <time>2024-02-11T21:45:54Z</time>
      </trkpt>
      <trkpt lat="48.44056" lon="-4.58477">
        <ele>86</ele>
        <time>2024-02-11T21:46:06Z</time>
      </trkpt>
      <trkpt lat="48.4406" lon="-4.58466">
        <ele>86</ele>
        <time>2024-02-11T21:46:08Z</time>
      </trkpt>
      <trkpt lat="48.44064" lon="-4.58435">
        <ele>85</ele>
        <time>2024-02-11T21:46:11Z</time>
      </trkpt>
      <trkpt lat="48.44063" lon="-4.5838">
        <ele>85</ele>
        <time>2024-02-11T21:46:18Z</time>
      </trkpt>
      <trkpt lat="48.44053" lon="-4.58309">
        <ele>85</ele>
        <time>2024-02-11T21:46:26Z</time>
      </trkpt>
      <trkpt lat="48.44037" lon="-4.58087">
        <ele>88</ele>
        <time>2024-02-11T21:46:53Z</time>
      </trkpt>
      <trkpt lat="48.44029" lon="-4.58031">
        <ele>88</ele>
        <time>2024-02-11T21:47:00Z</time>
      </trkpt>
      <trkpt lat="48.44009" lon="-4.5796">
        <ele>88</ele>
        <time>2024-02-11T21:47:09Z</time>
      </trkpt>
      <trkpt lat="48.44015" lon="-4.57934">
        <ele>88</ele>
        <time>2024-02-11T21:47:12Z</time>
      </trkpt>
      <trkpt lat="48.44092" lon="-4.57913">
        <ele>89</ele>
        <time>2024-02-11T21:47:26Z</time>
      </trkpt>
      <trkpt lat="48.44139" lon="-4.57913">
        <ele>90</ele>
        <time>2024-02-11T21:47:34Z</time>
      </trkpt>
      <trkpt lat="48.44171" lon="-4.57918">
        <ele>90</ele>
        <time>2024-02-11T21:47:40Z</time>
      </trkpt>
      <trkpt lat="48.44282" lon="-4.57961">
        <ele>89</ele>
        <time>2024-02-11T21:48:00Z</time>
      </trkpt>
      <trkpt lat="48.44616" lon="-4.58072">
        <ele>88</ele>
        <time>2024-02-11T21:49:01Z</time>
      </trkpt>
      <trkpt lat="48.44649" lon="-4.58075">
        <ele>87</ele>
        <time>2024-02-11T21:49:07Z</time>
      </trkpt>
      <trkpt lat="48.44712" lon="-4.58063">
        <ele>87</ele>
        <time>2024-02-11T21:49:18Z</time>
      </trkpt>
      <trkpt lat="48.44745" lon="-4.58044">
        <ele>87</ele>
        <time>2024-02-11T21:49:25Z</time>
      </trkpt>
      <trkpt lat="48.44759" lon="-4.58032">
        <ele>87</ele>
        <time>2024-02-11T21:49:27Z</time>
      </trkpt>
      <trkpt lat="48.44909" lon="-4.57887">
        <ele>92</ele>
        <time>2024-02-11T21:49:59Z</time>
      </trkpt>
      <trkpt lat="48.44931" lon="-4.5787">
        <ele>92</ele>
        <time>2024-02-11T21:50:04Z</time>
      </trkpt>
      <trkpt lat="48.44965" lon="-4.57851">
        <ele>92</ele>
        <time>2024-02-11T21:50:10Z</time>
      </trkpt>
      <trkpt lat="48.45009" lon="-4.57835">
        <ele>93</ele>
        <time>2024-02-11T21:50:18Z</time>
      </trkpt>
      <trkpt lat="48.45068" lon="-4.57822">
        <ele>92</ele>
        <time>2024-02-11T21:50:29Z</time>
      </trkpt>
      <trkpt lat="48.45104" lon="-4.57818">
        <ele>92</ele>
        <time>2024-02-11T21:50:35Z</time>
      </trkpt>
      <trkpt lat="48.45154" lon="-4.57808">
        <ele>92</ele>
        <time>2024-02-11T21:50:44Z</time>
      </trkpt>
      <trkpt lat="48.45199" lon="-4.57791">
        <ele>91</ele>
        <time>2024-02-11T21:50:52Z</time>
      </trkpt>
      <trkpt lat="48.4522" lon="-4.57776">
        <ele>92</ele>
        <time>2024-02-11T21:50:56Z</time>
      </trkpt>
      <trkpt lat="48.45424" lon="-4.57586">
        <ele>92</ele>
        <time>2024-02-11T21:51:39Z</time>
      </trkpt>
      <trkpt lat="48.45475" lon="-4.57553">
        <ele>92</ele>
        <time>2024-02-11T21:51:49Z</time>
      </trkpt>
      <trkpt lat="48.45632" lon="-4.57512">
        <ele>93</ele>
        <time>2024-02-11T21:52:17Z</time>
      </trkpt>
      <trkpt lat="48.45718" lon="-4.57493">
        <ele>95</ele>
        <time>2024-02-11T21:52:33Z</time>
      </trkpt>
      <trkpt lat="48.45775" lon="-4.57477">
        <ele>95</ele>
        <time>2024-02-11T21:52:43Z</time>
      </trkpt>
      <trkpt lat="48.45831" lon="-4.57446">
        <ele>93</ele>
        <time>2024-02-11T21:52:54Z</time>
      </trkpt>
      <trkpt lat="48.46074" lon="-4.57284">
        <ele>89</ele>
        <time>2024-02-11T21:53:41Z</time>
      </trkpt>
      <trkpt lat="48.4612" lon="-4.57257">
        <ele>90</ele>
        <time>2024-02-11T21:53:50Z</time>
      </trkpt>
      <trkpt lat="48.46234" lon="-4.57178">
        <ele>92</ele>
        <time>2024-02-11T21:54:12Z</time>
      </trkpt>
      <trkpt lat="48.46322" lon="-4.57095">
        <ele>92</ele>
        <time>2024-02-11T21:54:31Z</time>
      </trkpt>
      <trkpt lat="48.46391" lon="-4.57034">
        <ele>92</ele>
        <time>2024-02-11T21:54:45Z</time>
      </trkpt>
      <trkpt lat="48.46498" lon="-4.56946">
        <ele>91</ele>
        <time>2024-02-11T21:55:07Z</time>
      </trkpt>
      <trkpt lat="48.46532" lon="-4.56926">
        <ele>90</ele>
        <time>2024-02-11T21:55:13Z</time>
      </trkpt>
      <trkpt lat="48.46531" lon="-4.56918">
        <ele>90</ele>
        <time>2024-02-11T21:55:14Z</time>
      </trkpt>
      <trkpt lat="48.46538" lon="-4.56897">
        <ele>90</ele>
        <time>2024-02-11T21:55:17Z</time>
      </trkpt>
      <trkpt lat="48.46582" lon="-4.5682">
        <ele>89</ele>
        <time>2024-02-11T21:55:29Z</time>
      </trkpt>
      <trkpt lat="48.46613" lon="-4.56732">
        <ele>88</ele>
        <time>2024-02-11T21:55:40Z</time>
      </trkpt>
      <trkpt lat="48.46632" lon="-4.56686">
        <ele>88</ele>
        <time>2024-02-11T21:55:47Z</time>
      </trkpt>
      <trkpt lat="48.46643" lon="-4.56674">
        <ele>88</ele>
        <time>2024-02-11T21:55:49Z</time>
      </trkpt>
      <trkpt lat="48.46644" lon="-4.56669">
        <ele>88</ele>
        <time>2024-02-11T21:55:50Z</time>
      </trkpt>
      <trkpt lat="48.46643" lon="-4.56674">
        <ele>88</ele>
        <time>2024-02-11T21:55:51Z</time>
      </trkpt>
      <trkpt lat="48.4665" lon="-4.56692">
        <ele>88</ele>
        <time>2024-02-11T21:55:53Z</time>
      </trkpt>
      <trkpt lat="48.46658" lon="-4.56704">
        <ele>88</ele>
        <time>2024-02-11T21:55:55Z</time>
      </trkpt>
      <trkpt lat="48.46695" lon="-4.5672">
        <ele>87</ele>
        <time>2024-02-11T21:56:02Z</time>
      </trkpt>
      <trkpt lat="48.46703" lon="-4.56717">
        <ele>87</ele>
        <time>2024-02-11T21:56:03Z</time>
      </trkpt>
      <trkpt lat="48.46705" lon="-4.56711">
        <ele>87</ele>
        <time>2024-02-11T21:56:04Z</time>
      </trkpt>
      <trkpt lat="48.46717" lon="-4.56723">
        <ele>86</ele>
        <time>2024-02-11T21:56:07Z</time>
      </trkpt>
      <trkpt lat="48.46715" lon="-4.56727">
        <ele>86</ele>
        <time>2024-02-11T21:56:07Z</time>
      </trkpt>
      <trkpt lat="48.46723" lon="-4.56743">
        <ele>86</ele>
        <time>2024-02-11T21:56:10Z</time>
      </trkpt>
      <trkpt lat="48.46822" lon="-4.56762">
        <ele>83</ele>
        <time>2024-02-11T21:56:27Z</time>
      </trkpt>
      <trkpt lat="48.46847" lon="-4.56771">
        <ele>83</ele>
        <time>2024-02-11T21:56:32Z</time>
      </trkpt>
      <trkpt lat="48.46926" lon="-4.56832">
        <ele>83</ele>
        <time>2024-02-11T21:56:48Z</time>
      </trkpt>
      <trkpt lat="48.46952" lon="-4.5684">
        <ele>82</ele>
        <time>2024-02-11T21:56:52Z</time>
      </trkpt>
      <trkpt lat="48.46954" lon="-4.56835">
        <ele>82</ele>
        <time>2024-02-11T21:56:53Z</time>
      </trkpt>
      <trkpt lat="48.46957" lon="-4.56834">
        <ele>82</ele>
        <time>2024-02-11T21:56:54Z</time>
      </trkpt>
      <trkpt lat="48.4696" lon="-4.56836">
        <ele>82</ele>
        <time>2024-02-11T21:56:54Z</time>
      </trkpt>
      <trkpt lat="48.46961" lon="-4.56842">
        <ele>82</ele>
        <time>2024-02-11T21:56:55Z</time>
      </trkpt>
      <trkpt lat="48.46972" lon="-4.56843">
        <ele>82</ele>
        <time>2024-02-11T21:56:57Z</time>
      </trkpt>
      <trkpt lat="48.47009" lon="-4.56839">
        <ele>82</ele>
        <time>2024-02-11T21:57:04Z</time>
      </trkpt>
      <trkpt lat="48.47089" lon="-4.56797">
        <ele>80</ele>
        <time>2024-02-11T21:57:19Z</time>
      </trkpt>
      <trkpt lat="48.47114" lon="-4.56797">
        <ele>80</ele>
        <time>2024-02-11T21:57:23Z</time>
      </trkpt>
      <trkpt lat="48.47163" lon="-4.56816">
        <ele>81</ele>
        <time>2024-02-11T21:57:32Z</time>
      </trkpt>
      <trkpt lat="48.47204" lon="-4.56835">
        <ele>83</ele>
        <time>2024-02-11T21:57:40Z</time>
      </trkpt>
      <trkpt lat="48.47239" lon="-4.56847">
        <ele>85</ele>
        <time>2024-02-11T21:57:46Z</time>
      </trkpt>
      <trkpt lat="48.47261" lon="-4.56848">
        <ele>85</ele>
        <time>2024-02-11T21:57:50Z</time>
      </trkpt>
      <trkpt lat="48.47287" lon="-4.56841">
        <ele>85</ele>
        <time>2024-02-11T21:57:55Z</time>
      </trkpt>
      <trkpt lat="48.47339" lon="-4.56816">
        <ele>83</ele>
        <time>2024-02-11T21:58:04Z</time>
      </trkpt>
      <trkpt lat="48.47408" lon="-4.56762">
        <ele>83</ele>
        <time>2024-02-11T21:58:18Z</time>
      </trkpt>
      <trkpt lat="48.47475" lon="-4.56714">
        <ele>84</ele>
        <time>2024-02-11T21:58:31Z</time>
      </trkpt>
      <trkpt lat="48.47512" lon="-4.56695">
        <ele>85</ele>
        <time>2024-02-11T21:58:38Z</time>
      </trkpt>
      <trkpt lat="48.47531" lon="-4.56691">
        <ele>86</ele>
        <time>2024-02-11T21:58:42Z</time>
      </trkpt>
      <trkpt lat="48.47622" lon="-4.56692">
        <ele>87</ele>
        <time>2024-02-11T21:58:58Z</time>
      </trkpt>
      <trkpt lat="48.47661" lon="-4.56688">
        <ele>87</ele>
        <time>2024-02-11T21:59:05Z</time>
      </trkpt>
      <trkpt lat="48.47708" lon="-4.56673">
        <ele>85</ele>
        <time>2024-02-11T21:59:14Z</time>
      </trkpt>
      <trkpt lat="48.47762" lon="-4.56647">
        <ele>83</ele>
        <time>2024-02-11T21:59:24Z</time>
      </trkpt>
      <trkpt lat="48.47796" lon="-4.56625">
        <ele>83</ele>
        <time>2024-02-11T21:59:30Z</time>
      </trkpt>
      <trkpt lat="48.47888" lon="-4.56575">
        <ele>80</ele>
        <time>2024-02-11T21:59:48Z</time>
      </trkpt>
      <trkpt lat="48.47928" lon="-4.56556">
        <ele>79</ele>
        <time>2024-02-11T21:59:55Z</time>
      </trkpt>
      <trkpt lat="48.47965" lon="-4.56542">
        <ele>78</ele>
        <time>2024-02-11T22:00:02Z</time>
      </trkpt>
      <trkpt lat="48.4801" lon="-4.56531">
        <ele>77</ele>
        <time>2024-02-11T22:00:10Z</time>
      </trkpt>
      <trkpt lat="48.4809" lon="-4.56526">
        <ele>77</ele>
        <time>2024-02-11T22:00:24Z</time>
      </trkpt>
      <trkpt lat="48.48203" lon="-4.56524">
        <ele>79</ele>
        <time>2024-02-11T22:00:44Z</time>
      </trkpt>
      <trkpt lat="48.4827" lon="-4.5652">
        <ele>81</ele>
        <time>2024-02-11T22:00:56Z</time>
      </trkpt>
      <trkpt lat="48.48396" lon="-4.56519">
        <ele>82</ele>
        <time>2024-02-11T22:01:19Z</time>
      </trkpt>
      <trkpt lat="48.48444" lon="-4.56529">
        <ele>81</ele>
        <time>2024-02-11T22:01:27Z</time>
      </trkpt>
      <trkpt lat="48.4847" lon="-4.56539">
        <ele>81</ele>
        <time>2024-02-11T22:01:32Z</time>
      </trkpt>
      <trkpt lat="48.48506" lon="-4.5656">
        <ele>80</ele>
        <time>2024-02-11T22:01:39Z</time>
      </trkpt>
      <trkpt lat="48.48543" lon="-4.56589">
        <ele>79</ele>
        <time>2024-02-11T22:01:46Z</time>
      </trkpt>
      <trkpt lat="48.4859" lon="-4.56637">
        <ele>78</ele>
        <time>2024-02-11T22:01:56Z</time>
      </trkpt>
      <trkpt lat="48.48618" lon="-4.56658">
        <ele>78</ele>
        <time>2024-02-11T22:02:02Z</time>
      </trkpt>
      <trkpt lat="48.4867" lon="-4.56687">
        <ele>77</ele>
        <time>2024-02-11T22:02:12Z</time>
      </trkpt>
      <trkpt lat="48.48735" lon="-4.56717">
        <ele>75</ele>
        <time>2024-02-11T22:02:24Z</time>
      </trkpt>
      <trkpt lat="48.48745" lon="-4.56728">
        <ele>75</ele>
        <time>2024-02-11T22:02:26Z</time>
      </trkpt>
      <trkpt lat="48.48749" lon="-4.56723">
        <ele>75</ele>
        <time>2024-02-11T22:02:27Z</time>
      </trkpt>
      <trkpt lat="48.48757" lon="-4.5672">
        <ele>75</ele>
        <time>2024-02-11T22:02:29Z</time>
      </trkpt>
      <trkpt lat="48.48894" lon="-4.56751">
        <ele>74</ele>
        <time>2024-02-11T22:02:53Z</time>
      </trkpt>
      <trkpt lat="48.48914" lon="-4.56753">
        <ele>74</ele>
        <time>2024-02-11T22:02:57Z</time>
      </trkpt>
      <trkpt lat="48.48937" lon="-4.56745">
        <ele>73</ele>
        <time>2024-02-11T22:03:01Z</time>
      </trkpt>
      <trkpt lat="48.49106" lon="-4.56598">
        <ele>71</ele>
        <time>2024-02-11T22:03:36Z</time>
      </trkpt>
      <trkpt lat="48.4912" lon="-4.56591">
        <ele>72</ele>
        <time>2024-02-11T22:03:38Z</time>
      </trkpt>
      <trkpt lat="48.49196" lon="-4.56583">
        <ele>73</ele>
        <time>2024-02-11T22:03:52Z</time>
      </trkpt>
      <trkpt lat="48.49215" lon="-4.56577">
        <ele>73</ele>
        <time>2024-02-11T22:03:55Z</time>
      </trkpt>
      <trkpt lat="48.49233" lon="-4.56567">
        <ele>74</ele>
        <time>2024-02-11T22:03:59Z</time>
      </trkpt>
      <trkpt lat="48.49261" lon="-4.56542">
        <ele>75</ele>
        <time>2024-02-11T22:04:05Z</time>
      </trkpt>
      <trkpt lat="48.49446" lon="-4.56324">
        <ele>76</ele>
        <time>2024-02-11T22:04:46Z</time>
      </trkpt>
      <trkpt lat="48.49457" lon="-4.56305">
        <ele>75</ele>
        <time>2024-02-11T22:04:49Z</time>
      </trkpt>
      <trkpt lat="48.49465" lon="-4.56283">
        <ele>75</ele>
        <time>2024-02-11T22:04:52Z</time>
      </trkpt>
      <trkpt lat="48.49481" lon="-4.5614">
        <ele>73</ele>
        <time>2024-02-11T22:05:09Z</time>
      </trkpt>
      <trkpt lat="48.49508" lon="-4.55879">
        <ele>74</ele>
        <time>2024-02-11T22:05:40Z</time>
      </trkpt>
      <trkpt lat="48.49517" lon="-4.5576">
        <ele>69</ele>
        <time>2024-02-11T22:05:55Z</time>
      </trkpt>
      <trkpt lat="48.49525" lon="-4.55722">
        <ele>68</ele>
        <time>2024-02-11T22:05:59Z</time>
      </trkpt>
      <trkpt lat="48.49532" lon="-4.55709">
        <ele>68</ele>
        <time>2024-02-11T22:06:01Z</time>
      </trkpt>
      <trkpt lat="48.4957" lon="-4.55683">
        <ele>67</ele>
        <time>2024-02-11T22:06:09Z</time>
      </trkpt>
      <trkpt lat="48.49587" lon="-4.55677">
        <ele>66</ele>
        <time>2024-02-11T22:06:12Z</time>
      </trkpt>
      <trkpt lat="48.49596" lon="-4.55677">
        <ele>65</ele>
        <time>2024-02-11T22:06:13Z</time>
      </trkpt>
      <trkpt lat="48.4963" lon="-4.55699">
        <ele>64</ele>
        <time>2024-02-11T22:06:20Z</time>
      </trkpt>
      <trkpt lat="48.49647" lon="-4.55713">
        <ele>65</ele>
        <time>2024-02-11T22:06:23Z</time>
      </trkpt>
      <trkpt lat="48.4966" lon="-4.55717">
        <ele>65</ele>
        <time>2024-02-11T22:06:26Z</time>
      </trkpt>
      <trkpt lat="48.49672" lon="-4.55716">
        <ele>65</ele>
        <time>2024-02-11T22:06:28Z</time>
      </trkpt>
      <trkpt lat="48.49692" lon="-4.55708">
        <ele>63</ele>
        <time>2024-02-11T22:06:32Z</time>
      </trkpt>
      <trkpt lat="48.49716" lon="-4.55692">
        <ele>61</ele>
        <time>2024-02-11T22:06:36Z</time>
      </trkpt>
      <trkpt lat="48.49799" lon="-4.55618">
        <ele>57</ele>
        <time>2024-02-11T22:06:53Z</time>
      </trkpt>
      <trkpt lat="48.49865" lon="-4.55574">
        <ele>52</ele>
        <time>2024-02-11T22:07:06Z</time>
      </trkpt>
      <trkpt lat="48.49921" lon="-4.55548">
        <ele>53</ele>
        <time>2024-02-11T22:07:17Z</time>
      </trkpt>
      <trkpt lat="48.49975" lon="-4.5551">
        <ele>53</ele>
        <time>2024-02-11T22:07:27Z</time>
      </trkpt>
      <trkpt lat="48.49998" lon="-4.5549">
        <ele>52</ele>
        <time>2024-02-11T22:07:32Z</time>
      </trkpt>
      <trkpt lat="48.50032" lon="-4.55454">
        <ele>50</ele>
        <time>2024-02-11T22:07:39Z</time>
      </trkpt>
      <trkpt lat="48.50038" lon="-4.55438">
        <ele>50</ele>
        <time>2024-02-11T22:07:42Z</time>
      </trkpt>
      <trkpt lat="48.5004" lon="-4.55397">
        <ele>52</ele>
        <time>2024-02-11T22:07:46Z</time>
      </trkpt>
      <trkpt lat="48.50046" lon="-4.55361">
        <ele>52</ele>
        <time>2024-02-11T22:07:51Z</time>
      </trkpt>
      <trkpt lat="48.50056" lon="-4.55345">
        <ele>52</ele>
        <time>2024-02-11T22:07:53Z</time>
      </trkpt>
      <trkpt lat="48.50075" lon="-4.5533">
        <ele>51</ele>
        <time>2024-02-11T22:07:57Z</time>
      </trkpt>
      <trkpt lat="48.50091" lon="-4.55328">
        <ele>51</ele>
        <time>2024-02-11T22:08:00Z</time>
      </trkpt>
      <trkpt lat="48.50117" lon="-4.55337">
        <ele>51</ele>
        <time>2024-02-11T22:08:05Z</time>
      </trkpt>
      <trkpt lat="48.50153" lon="-4.5537">
        <ele>51</ele>
        <time>2024-02-11T22:08:12Z</time>
      </trkpt>
      <trkpt lat="48.50206" lon="-4.55426">
        <ele>53</ele>
        <time>2024-02-11T22:08:24Z</time>
      </trkpt>
      <trkpt lat="48.50235" lon="-4.55451">
        <ele>55</ele>
        <time>2024-02-11T22:08:30Z</time>
      </trkpt>
      <trkpt lat="48.50249" lon="-4.55453">
        <ele>57</ele>
        <time>2024-02-11T22:08:32Z</time>
      </trkpt>
      <trkpt lat="48.50263" lon="-4.55448">
        <ele>57</ele>
        <time>2024-02-11T22:08:35Z</time>
      </trkpt>
      <trkpt lat="48.50279" lon="-4.55436">
        <ele>58</ele>
        <time>2024-02-11T22:08:38Z</time>
      </trkpt>
      <trkpt lat="48.50294" lon="-4.55408">
        <ele>60</ele>
        <time>2024-02-11T22:08:42Z</time>
      </trkpt>
      <trkpt lat="48.50345" lon="-4.55159">
        <ele>65</ele>
        <time>2024-02-11T22:09:13Z</time>
      </trkpt>
      <trkpt lat="48.50356" lon="-4.55119">
        <ele>65</ele>
        <time>2024-02-11T22:09:18Z</time>
      </trkpt>
      <trkpt lat="48.50483" lon="-4.54737">
        <ele>64</ele>
        <time>2024-02-11T22:10:08Z</time>
      </trkpt>
      <trkpt lat="48.50496" lon="-4.54711">
        <ele>65</ele>
        <time>2024-02-11T22:10:12Z</time>
      </trkpt>
      <trkpt lat="48.50508" lon="-4.54664">
        <ele>66</ele>
        <time>2024-02-11T22:10:18Z</time>
      </trkpt>
      <trkpt lat="48.50539" lon="-4.54658">
        <ele>64</ele>
        <time>2024-02-11T22:10:24Z</time>
      </trkpt>
      <trkpt lat="48.50555" lon="-4.54651">
        <ele>63</ele>
        <time>2024-02-11T22:10:27Z</time>
      </trkpt>
      <trkpt lat="48.50576" lon="-4.5462">
        <ele>63</ele>
        <time>2024-02-11T22:10:32Z</time>
      </trkpt>
      <trkpt lat="48.50599" lon="-4.54578">
        <ele>63</ele>
        <time>2024-02-11T22:10:38Z</time>
      </trkpt>
      <trkpt lat="48.50651" lon="-4.54465">
        <ele>63</ele>
        <time>2024-02-11T22:10:55Z</time>
      </trkpt>
      <trkpt lat="48.50673" lon="-4.54442">
        <ele>63</ele>
        <time>2024-02-11T22:10:59Z</time>
      </trkpt>
      <trkpt lat="48.5072" lon="-4.54382">
        <ele>63</ele>
        <time>2024-02-11T22:11:10Z</time>
      </trkpt>
      <trkpt lat="48.50773" lon="-4.54344">
        <ele>62</ele>
        <time>2024-02-11T22:11:21Z</time>
      </trkpt>
      <trkpt lat="48.50835" lon="-4.54286">
        <ele>61</ele>
        <time>2024-02-11T22:11:34Z</time>
      </trkpt>
      <trkpt lat="48.50859" lon="-4.54256">
        <ele>60</ele>
        <time>2024-02-11T22:11:39Z</time>
      </trkpt>
      <trkpt lat="48.50866" lon="-4.54205">
        <ele>60</ele>
        <time>2024-02-11T22:11:45Z</time>
      </trkpt>
      <trkpt lat="48.50892" lon="-4.54194">
        <ele>59</ele>
        <time>2024-02-11T22:11:50Z</time>
      </trkpt>
      <trkpt lat="48.50927" lon="-4.54187">
        <ele>59</ele>
        <time>2024-02-11T22:11:57Z</time>
      </trkpt>
      <trkpt lat="48.50945" lon="-4.54188">
        <ele>59</ele>
        <time>2024-02-11T22:12:00Z</time>
      </trkpt>
      <trkpt lat="48.50999" lon="-4.54206">
        <ele>59</ele>
        <time>2024-02-11T22:12:10Z</time>
      </trkpt>
      <trkpt lat="48.51009" lon="-4.54218">
        <ele>59</ele>
        <time>2024-02-11T22:12:12Z</time>
      </trkpt>
      <trkpt lat="48.51078" lon="-4.54354">
        <ele>59</ele>
        <time>2024-02-11T22:12:32Z</time>
      </trkpt>
      <trkpt lat="48.51113" lon="-4.54444">
        <ele>59</ele>
        <time>2024-02-11T22:12:44Z</time>
      </trkpt>
      <trkpt lat="48.51184" lon="-4.5455">
        <ele>57</ele>
        <time>2024-02-11T22:13:02Z</time>
      </trkpt>
      <trkpt lat="48.51194" lon="-4.54561">
        <ele>57</ele>
        <time>2024-02-11T22:13:04Z</time>
      </trkpt>
      <trkpt lat="48.51205" lon="-4.54568">
        <ele>57</ele>
        <time>2024-02-11T22:13:06Z</time>
      </trkpt>
      <trkpt lat="48.51217" lon="-4.54573">
        <ele>57</ele>
        <time>2024-02-11T22:13:09Z</time>
      </trkpt>
      <trkpt lat="48.51231" lon="-4.54575">
        <ele>56</ele>
        <time>2024-02-11T22:13:11Z</time>
      </trkpt>
      <trkpt lat="48.51254" lon="-4.54572">
        <ele>56</ele>
        <time>2024-02-11T22:13:15Z</time>
      </trkpt>
      <trkpt lat="48.51338" lon="-4.54536">
        <ele>53</ele>
        <time>2024-02-11T22:13:31Z</time>
      </trkpt>
      <trkpt lat="48.51366" lon="-4.54534">
        <ele>54</ele>
        <time>2024-02-11T22:13:36Z</time>
      </trkpt>
      <trkpt lat="48.51414" lon="-4.54537">
        <ele>55</ele>
        <time>2024-02-11T22:13:44Z</time>
      </trkpt>
      <trkpt lat="48.51427" lon="-4.54535">
        <ele>56</ele>
        <time>2024-02-11T22:13:47Z</time>
      </trkpt>
      <trkpt lat="48.51502" lon="-4.54506">
        <ele>59</ele>
        <time>2024-02-11T22:14:00Z</time>
      </trkpt>
      <trkpt lat="48.51525" lon="-4.5449">
        <ele>60</ele>
        <time>2024-02-11T22:14:05Z</time>
      </trkpt>
      <trkpt lat="48.51602" lon="-4.54427">
        <ele>62</ele>
        <time>2024-02-11T22:14:21Z</time>
      </trkpt>
      <trkpt lat="48.51743" lon="-4.54307">
        <ele>60</ele>
        <time>2024-02-11T22:14:49Z</time>
      </trkpt>
      <trkpt lat="48.52091" lon="-4.54041">
        <ele>49</ele>
        <time>2024-02-11T22:15:59Z</time>
      </trkpt>
      <trkpt lat="48.52138" lon="-4.54007">
        <ele>50</ele>
        <time>2024-02-11T22:16:08Z</time>
      </trkpt>
      <trkpt lat="48.52158" lon="-4.53997">
        <ele>51</ele>
        <time>2024-02-11T22:16:12Z</time>
      </trkpt>
      <trkpt lat="48.52193" lon="-4.53988">
        <ele>53</ele>
        <time>2024-02-11T22:16:18Z</time>
      </trkpt>
      <trkpt lat="48.52219" lon="-4.53985">
        <ele>55</ele>
        <time>2024-02-11T22:16:23Z</time>
      </trkpt>
      <trkpt lat="48.52245" lon="-4.53985">
        <ele>57</ele>
        <time>2024-02-11T22:16:27Z</time>
      </trkpt>
      <trkpt lat="48.52278" lon="-4.53992">
        <ele>57</ele>
        <time>2024-02-11T22:16:33Z</time>
      </trkpt>
      <trkpt lat="48.5231" lon="-4.54004">
        <ele>58</ele>
        <time>2024-02-11T22:16:39Z</time>
      </trkpt>
      <trkpt lat="48.524" lon="-4.54051">
        <ele>56</ele>
        <time>2024-02-11T22:16:56Z</time>
      </trkpt>
      <trkpt lat="48.52451" lon="-4.54073">
        <ele>57</ele>
        <time>2024-02-11T22:17:06Z</time>
      </trkpt>
      <trkpt lat="48.52481" lon="-4.54082">
        <ele>58</ele>
        <time>2024-02-11T22:17:11Z</time>
      </trkpt>
      <trkpt lat="48.52685" lon="-4.54103">
        <ele>62</ele>
        <time>2024-02-11T22:17:47Z</time>
      </trkpt>
      <trkpt lat="48.5272" lon="-4.54102">
        <ele>63</ele>
        <time>2024-02-11T22:17:54Z</time>
      </trkpt>
      <trkpt lat="48.52792" lon="-4.54091">
        <ele>63</ele>
        <time>2024-02-11T22:18:06Z</time>
      </trkpt>
      <trkpt lat="48.52815" lon="-4.54091">
        <ele>63</ele>
        <time>2024-02-11T22:18:11Z</time>
      </trkpt>
      <trkpt lat="48.52834" lon="-4.54099">
        <ele>63</ele>
        <time>2024-02-11T22:18:14Z</time>
      </trkpt>
      <trkpt lat="48.52877" lon="-4.54125">
        <ele>63</ele>
        <time>2024-02-11T22:18:22Z</time>
      </trkpt>
      <trkpt lat="48.52981" lon="-4.54141">
        <ele>61</ele>
        <time>2024-02-11T22:18:41Z</time>
      </trkpt>
      <trkpt lat="48.53071" lon="-4.54163">
        <ele>58</ele>
        <time>2024-02-11T22:18:57Z</time>
      </trkpt>
      <trkpt lat="48.53099" lon="-4.54175">
        <ele>58</ele>
        <time>2024-02-11T22:19:02Z</time>
      </trkpt>
      <trkpt lat="48.53163" lon="-4.54218">
        <ele>56</ele>
        <time>2024-02-11T22:19:15Z</time>
      </trkpt>
      <trkpt lat="48.53257" lon="-4.54273">
        <ele>54</ele>
        <time>2024-02-11T22:19:33Z</time>
      </trkpt>
      <trkpt lat="48.53303" lon="-4.54317">
        <ele>53</ele>
        <time>2024-02-11T22:19:42Z</time>
      </trkpt>
      <trkpt lat="48.53318" lon="-4.54321">
        <ele>52</ele>
        <time>2024-02-11T22:19:45Z</time>
      </trkpt>
      <trkpt lat="48.53328" lon="-4.54318">
        <ele>52</ele>
        <time>2024-02-11T22:19:47Z</time>
      </trkpt>
      <trkpt lat="48.53353" lon="-4.54302">
        <ele>50</ele>
        <time>2024-02-11T22:19:52Z</time>
      </trkpt>
      <trkpt lat="48.53418" lon="-4.54251">
        <ele>46</ele>
        <time>2024-02-11T22:20:05Z</time>
      </trkpt>
      <trkpt lat="48.53432" lon="-4.54244">
        <ele>46</ele>
        <time>2024-02-11T22:20:07Z</time>
      </trkpt>
      <trkpt lat="48.5365" lon="-4.54164">
        <ele>43</ele>
        <time>2024-02-11T22:20:47Z</time>
      </trkpt>
      <trkpt lat="48.53678" lon="-4.54151">
        <ele>43</ele>
        <time>2024-02-11T22:20:53Z</time>
      </trkpt>
      <trkpt lat="48.53747" lon="-4.54113">
        <ele>43</ele>
        <time>2024-02-11T22:21:06Z</time>
      </trkpt>
      <trkpt lat="48.53762" lon="-4.54108">
        <ele>43</ele>
        <time>2024-02-11T22:21:08Z</time>
      </trkpt>
      <trkpt lat="48.53775" lon="-4.5411">
        <ele>42</ele>
        <time>2024-02-11T22:21:11Z</time>
      </trkpt>
      <trkpt lat="48.53788" lon="-4.54116">
        <ele>42</ele>
        <time>2024-02-11T22:21:13Z</time>
      </trkpt>
      <trkpt lat="48.53799" lon="-4.5413">
        <ele>42</ele>
        <time>2024-02-11T22:21:16Z</time>
      </trkpt>
      <trkpt lat="48.5383" lon="-4.54185">
        <ele>43</ele>
        <time>2024-02-11T22:21:24Z</time>
      </trkpt>
      <trkpt lat="48.53842" lon="-4.54199">
        <ele>43</ele>
        <time>2024-02-11T22:21:27Z</time>
      </trkpt>
      <trkpt lat="48.53854" lon="-4.54204">
        <ele>43</ele>
        <time>2024-02-11T22:21:29Z</time>
      </trkpt>
      <trkpt lat="48.53867" lon="-4.54202">
        <ele>43</ele>
        <time>2024-02-11T22:21:31Z</time>
      </trkpt>
      <trkpt lat="48.53927" lon="-4.54181">
        <ele>43</ele>
        <time>2024-02-11T22:21:42Z</time>
      </trkpt>
      <trkpt lat="48.53991" lon="-4.54168">
        <ele>46</ele>
        <time>2024-02-11T22:21:54Z</time>
      </trkpt>
      <trkpt lat="48.54041" lon="-4.54153">
        <ele>46</ele>
        <time>2024-02-11T22:22:03Z</time>
      </trkpt>
      <trkpt lat="48.54058" lon="-4.54151">
        <ele>46</ele>
        <time>2024-02-11T22:22:06Z</time>
      </trkpt>
      <trkpt lat="48.54078" lon="-4.54153">
        <ele>46</ele>
        <time>2024-02-11T22:22:09Z</time>
      </trkpt>
      <trkpt lat="48.54133" lon="-4.54182">
        <ele>46</ele>
        <time>2024-02-11T22:22:20Z</time>
      </trkpt>
      <trkpt lat="48.54178" lon="-4.54197">
        <ele>45</ele>
        <time>2024-02-11T22:22:28Z</time>
      </trkpt>
      <trkpt lat="48.54224" lon="-4.54217">
        <ele>44</ele>
        <time>2024-02-11T22:22:37Z</time>
      </trkpt>
      <trkpt lat="48.54244" lon="-4.54221">
        <ele>43</ele>
        <time>2024-02-11T22:22:40Z</time>
      </trkpt>
      <trkpt lat="48.54369" lon="-4.5421">
        <ele>44</ele>
        <time>2024-02-11T22:23:02Z</time>
      </trkpt>
      <trkpt lat="48.54393" lon="-4.5421">
        <ele>44</ele>
        <time>2024-02-11T22:23:07Z</time>
      </trkpt>
      <trkpt lat="48.54501" lon="-4.54229">
        <ele>45</ele>
        <time>2024-02-11T22:23:26Z</time>
      </trkpt>
      <trkpt lat="48.5452" lon="-4.54229">
        <ele>45</ele>
        <time>2024-02-11T22:23:29Z</time>
      </trkpt>
      <trkpt lat="48.54553" lon="-4.54216">
        <ele>45</ele>
        <time>2024-02-11T22:23:36Z</time>
      </trkpt>
      <trkpt lat="48.54817" lon="-4.54076">
        <ele>52</ele>
        <time>2024-02-11T22:24:25Z</time>
      </trkpt>
      <trkpt lat="48.54907" lon="-4.54009">
        <ele>46</ele>
        <time>2024-02-11T22:24:43Z</time>
      </trkpt>
      <trkpt lat="48.54918" lon="-4.53999">
        <ele>45</ele>
        <time>2024-02-11T22:24:45Z</time>
      </trkpt>
      <trkpt lat="48.54931" lon="-4.53979">
        <ele>43</ele>
        <time>2024-02-11T22:24:49Z</time>
      </trkpt>
      <trkpt lat="48.54957" lon="-4.53973">
        <ele>40</ele>
        <time>2024-02-11T22:24:53Z</time>
      </trkpt>
      <trkpt lat="48.55005" lon="-4.53942">
        <ele>35</ele>
        <time>2024-02-11T22:25:03Z</time>
      </trkpt>
      <trkpt lat="48.55093" lon="-4.53876">
        <ele>30</ele>
        <time>2024-02-11T22:25:20Z</time>
      </trkpt>
      <trkpt lat="48.55137" lon="-4.53849">
        <ele>26</ele>
        <time>2024-02-11T22:25:29Z</time>
      </trkpt>
      <trkpt lat="48.55138" lon="-4.53857">
        <ele>26</ele>
        <time>2024-02-11T22:25:30Z</time>
      </trkpt>
      <trkpt lat="48.55137" lon="-4.53849">
        <ele>26</ele>
        <time>2024-02-11T22:25:31Z</time>
      </trkpt>
      <trkpt lat="48.55144" lon="-4.53844">
        <ele>26</ele>
        <time>2024-02-11T22:25:32Z</time>
      </trkpt>
      <trkpt lat="48.55161" lon="-4.53838">
        <ele>25</ele>
        <time>2024-02-11T22:25:35Z</time>
      </trkpt>
      <trkpt lat="48.55172" lon="-4.53837">
        <ele>24</ele>
        <time>2024-02-11T22:25:37Z</time>
      </trkpt>
      <trkpt lat="48.55183" lon="-4.53839">
        <ele>24</ele>
        <time>2024-02-11T22:25:39Z</time>
      </trkpt>
      <trkpt lat="48.55187" lon="-4.53842">
        <ele>24</ele>
        <time>2024-02-11T22:25:40Z</time>
      </trkpt>
      <trkpt lat="48.55194" lon="-4.53837">
        <ele>24</ele>
        <time>2024-02-11T22:25:41Z</time>
      </trkpt>
      <trkpt lat="48.55217" lon="-4.53829">
        <ele>23</ele>
        <time>2024-02-11T22:25:45Z</time>
      </trkpt>
      <trkpt lat="48.55232" lon="-4.53819">
        <ele>22</ele>
        <time>2024-02-11T22:25:48Z</time>
      </trkpt>
      <trkpt lat="48.55241" lon="-4.5381">
        <ele>21</ele>
        <time>2024-02-11T22:25:50Z</time>
      </trkpt>
      <trkpt lat="48.55247" lon="-4.53795">
        <ele>20</ele>
        <time>2024-02-11T22:25:52Z</time>
      </trkpt>
      <trkpt lat="48.55251" lon="-4.53774">
        <ele>19</ele>
        <time>2024-02-11T22:25:55Z</time>
      </trkpt>
      <trkpt lat="48.55252" lon="-4.53751">
        <ele>17</ele>
        <time>2024-02-11T22:25:58Z</time>
      </trkpt>
      <trkpt lat="48.55248" lon="-4.53679">
        <ele>11</ele>
        <time>2024-02-11T22:26:06Z</time>
      </trkpt>
      <trkpt lat="48.5525" lon="-4.53657">
        <ele>10</ele>
        <time>2024-02-11T22:26:09Z</time>
      </trkpt>
      <trkpt lat="48.55264" lon="-4.53615">
        <ele>7</ele>
        <time>2024-02-11T22:26:14Z</time>
      </trkpt>
      <trkpt lat="48.55283" lon="-4.53582">
        <ele>5</ele>
        <time>2024-02-11T22:26:19Z</time>
      </trkpt>
      <trkpt lat="48.55305" lon="-4.53564">
        <ele>4</ele>
        <time>2024-02-11T22:26:24Z</time>
      </trkpt>
      <trkpt lat="48.55345" lon="-4.53545">
        <ele>2</ele>
        <time>2024-02-11T22:26:31Z</time>
      </trkpt>
      <trkpt lat="48.5547" lon="-4.53443">
        <ele>5</ele>
        <time>2024-02-11T22:26:57Z</time>
      </trkpt>
      <trkpt lat="48.55548" lon="-4.53383">
        <ele>2</ele>
        <time>2024-02-11T22:27:12Z</time>
      </trkpt>
      <trkpt lat="48.55568" lon="-4.53373">
        <ele>3</ele>
        <time>2024-02-11T22:27:16Z</time>
      </trkpt>
      <trkpt lat="48.55594" lon="-4.53365">
        <ele>4</ele>
        <time>2024-02-11T22:27:21Z</time>
      </trkpt>
      <trkpt lat="48.55623" lon="-4.5336">
        <ele>5</ele>
        <time>2024-02-11T22:27:26Z</time>
      </trkpt>
      <trkpt lat="48.55903" lon="-4.53329">
        <ele>19</ele>
        <time>2024-02-11T22:28:16Z</time>
      </trkpt>
      <trkpt lat="48.55929" lon="-4.53321">
        <ele>21</ele>
        <time>2024-02-11T22:28:20Z</time>
      </trkpt>
      <trkpt lat="48.55969" lon="-4.53304">
        <ele>24</ele>
        <time>2024-02-11T22:28:28Z</time>
      </trkpt>
      <trkpt lat="48.5606" lon="-4.53239">
        <ele>31</ele>
        <time>2024-02-11T22:28:46Z</time>
      </trkpt>
      <trkpt lat="48.56106" lon="-4.53209">
        <ele>33</ele>
        <time>2024-02-11T22:28:55Z</time>
      </trkpt>
      <trkpt lat="48.5625" lon="-4.53143">
        <ele>35</ele>
        <time>2024-02-11T22:29:21Z</time>
      </trkpt>
      <trkpt lat="48.56279" lon="-4.53122">
        <ele>34</ele>
        <time>2024-02-11T22:29:27Z</time>
      </trkpt>
      <trkpt lat="48.56318" lon="-4.53081">
        <ele>34</ele>
        <time>2024-02-11T22:29:36Z</time>
      </trkpt>
      <trkpt lat="48.56409" lon="-4.52939">
        <ele>38</ele>
        <time>2024-02-11T22:29:59Z</time>
      </trkpt>
      <trkpt lat="48.56445" lon="-4.52864">
        <ele>37</ele>
        <time>2024-02-11T22:30:10Z</time>
      </trkpt>
      <trkpt lat="48.5647" lon="-4.52778">
        <ele>37</ele>
        <time>2024-02-11T22:30:21Z</time>
      </trkpt>
      <trkpt lat="48.56499" lon="-4.5265">
        <ele>37</ele>
        <time>2024-02-11T22:30:37Z</time>
      </trkpt>
      <trkpt lat="48.56512" lon="-4.52622">
        <ele>36</ele>
        <time>2024-02-11T22:30:41Z</time>
      </trkpt>
      <trkpt lat="48.56508" lon="-4.52582">
        <ele>36</ele>
        <time>2024-02-11T22:30:46Z</time>
      </trkpt>
      <trkpt lat="48.56509" lon="-4.52573">
        <ele>36</ele>
        <time>2024-02-11T22:30:47Z</time>
      </trkpt>
      <trkpt lat="48.56512" lon="-4.52568">
        <ele>36</ele>
        <time>2024-02-11T22:30:47Z</time>
      </trkpt>
      <trkpt lat="48.56519" lon="-4.52569">
        <ele>36</ele>
        <time>2024-02-11T22:30:49Z</time>
      </trkpt>
      <trkpt lat="48.56522" lon="-4.52574">
        <ele>36</ele>
        <time>2024-02-11T22:30:49Z</time>
      </trkpt>
      <trkpt lat="48.56526" lon="-4.52609">
        <ele>36</ele>
        <time>2024-02-11T22:30:54Z</time>
      </trkpt>
      <trkpt lat="48.56525" lon="-4.52618">
        <ele>36</ele>
        <time>2024-02-11T22:30:55Z</time>
      </trkpt>
      <trkpt lat="48.56546" lon="-4.5264">
        <ele>36</ele>
        <time>2024-02-11T22:30:59Z</time>
      </trkpt>
      <trkpt lat="48.56622" lon="-4.52779">
        <ele>39</ele>
        <time>2024-02-11T22:31:21Z</time>
      </trkpt>
      <trkpt lat="48.56786" lon="-4.5317">
        <ele>40</ele>
        <time>2024-02-11T22:32:15Z</time>
      </trkpt>
      <trkpt lat="48.56888" lon="-4.53364">
        <ele>42</ele>
        <time>2024-02-11T22:32:44Z</time>
      </trkpt>
      <trkpt lat="48.56898" lon="-4.53376">
        <ele>42</ele>
        <time>2024-02-11T22:32:46Z</time>
      </trkpt>
      <trkpt lat="48.56918" lon="-4.53393">
        <ele>41</ele>
        <time>2024-02-11T22:32:51Z</time>
      </trkpt>
      <trkpt lat="48.56919" lon="-4.53388">
        <ele>41</ele>
        <time>2024-02-11T22:32:51Z</time>
      </trkpt>
      <trkpt lat="48.56925" lon="-4.53383">
        <ele>41</ele>
        <time>2024-02-11T22:32:52Z</time>
      </trkpt>
      <trkpt lat="48.56934" lon="-4.53388">
        <ele>41</ele>
        <time>2024-02-11T22:32:54Z</time>
      </trkpt>
      <trkpt lat="48.56935" lon="-4.53401">
        <ele>41</ele>
        <time>2024-02-11T22:32:56Z</time>
      </trkpt>
      <trkpt lat="48.56928" lon="-4.5341">
        <ele>41</ele>
        <time>2024-02-11T22:32:57Z</time>
      </trkpt>
      <trkpt lat="48.56934" lon="-4.53443">
        <ele>41</ele>
        <time>2024-02-11T22:33:01Z</time>
      </trkpt>
      <trkpt lat="48.5699" lon="-4.53565">
        <ele>41</ele>
        <time>2024-02-11T22:33:19Z</time>
      </trkpt>
      <trkpt lat="48.57048" lon="-4.53725">
        <ele>43</ele>
        <time>2024-02-11T22:33:40Z</time>
      </trkpt>
      <trkpt lat="48.57113" lon="-4.5394">
        <ele>44</ele>
        <time>2024-02-11T22:34:08Z</time>
      </trkpt>
      <trkpt lat="48.57136" lon="-4.54006">
        <ele>44</ele>
        <time>2024-02-11T22:34:17Z</time>
      </trkpt>
      <trkpt lat="48.57235" lon="-4.54267">
        <ele>46</ele>
        <time>2024-02-11T22:34:52Z</time>
      </trkpt>
      <trkpt lat="48.57265" lon="-4.54335">
        <ele>46</ele>
        <time>2024-02-11T22:35:02Z</time>
      </trkpt>
      <trkpt lat="48.5729" lon="-4.54401">
        <ele>46</ele>
        <time>2024-02-11T22:35:11Z</time>
      </trkpt>
      <trkpt lat="48.57375" lon="-4.54665">
        <ele>37</ele>
        <time>2024-02-11T22:35:45Z</time>
      </trkpt>
      <trkpt lat="48.57398" lon="-4.54758">
        <ele>35</ele>
        <time>2024-02-11T22:35:57Z</time>
      </trkpt>
      <trkpt lat="48.57419" lon="-4.54864">
        <ele>35</ele>
        <time>2024-02-11T22:36:10Z</time>
      </trkpt>
      <trkpt lat="48.57419" lon="-4.54946">
        <ele>36</ele>
        <time>2024-02-11T22:36:20Z</time>
      </trkpt>
      <trkpt lat="48.57415" lon="-4.54995">
        <ele>37</ele>
        <time>2024-02-11T22:36:26Z</time>
      </trkpt>
      <trkpt lat="48.57404" lon="-4.55051">
        <ele>38</ele>
        <time>2024-02-11T22:36:32Z</time>
      </trkpt>
      <trkpt lat="48.57394" lon="-4.55088">
        <ele>39</ele>
        <time>2024-02-11T22:36:37Z</time>
      </trkpt>
      <trkpt lat="48.5731" lon="-4.55316">
        <ele>40</ele>
        <time>2024-02-11T22:37:08Z</time>
      </trkpt>
      <trkpt lat="48.57275" lon="-4.55481">
        <ele>39</ele>
        <time>2024-02-11T22:37:28Z</time>
      </trkpt>
      <trkpt lat="48.5726" lon="-4.55529">
        <ele>39</ele>
        <time>2024-02-11T22:37:35Z</time>
      </trkpt>
      <trkpt lat="48.57249" lon="-4.55556">
        <ele>39</ele>
        <time>2024-02-11T22:37:38Z</time>
      </trkpt>
      <trkpt lat="48.57179" lon="-4.55701">
        <ele>36</ele>
        <time>2024-02-11T22:37:59Z</time>
      </trkpt>
      <trkpt lat="48.57099" lon="-4.55858">
        <ele>40</ele>
        <time>2024-02-11T22:38:23Z</time>
      </trkpt>
      <trkpt lat="48.57073" lon="-4.55919">
        <ele>41</ele>
        <time>2024-02-11T22:38:31Z</time>
      </trkpt>
      <trkpt lat="48.57057" lon="-4.55974">
        <ele>41</ele>
        <time>2024-02-11T22:38:38Z</time>
      </trkpt>
      <trkpt lat="48.57023" lon="-4.56113">
        <ele>41</ele>
        <time>2024-02-11T22:38:56Z</time>
      </trkpt>
      <trkpt lat="48.56961" lon="-4.56383">
        <ele>41</ele>
        <time>2024-02-11T22:39:29Z</time>
      </trkpt>
      <trkpt lat="48.56948" lon="-4.56474">
        <ele>40</ele>
        <time>2024-02-11T22:39:40Z</time>
      </trkpt>
      <trkpt lat="48.56948" lon="-4.56541">
        <ele>39</ele>
        <time>2024-02-11T22:39:48Z</time>
      </trkpt>
      <trkpt lat="48.56956" lon="-4.56766">
        <ele>42</ele>
        <time>2024-02-11T22:40:15Z</time>
      </trkpt>
      <trkpt lat="48.56958" lon="-4.56939">
        <ele>44</ele>
        <time>2024-02-11T22:40:35Z</time>
      </trkpt>
      <trkpt lat="48.56955" lon="-4.57104">
        <ele>44</ele>
        <time>2024-02-11T22:40:55Z</time>
      </trkpt>
      <trkpt lat="48.56947" lon="-4.57317">
        <ele>44</ele>
        <time>2024-02-11T22:41:20Z</time>
      </trkpt>
      <trkpt lat="48.56957" lon="-4.57317">
        <ele>44</ele>
        <time>2024-02-11T22:41:22Z</time>
      </trkpt>
      <trkpt lat="48.56947" lon="-4.57317">
        <ele>44</ele>
        <time>2024-02-11T22:41:23Z</time>
      </trkpt>
      <trkpt lat="48.56943" lon="-4.57416">
        <ele>44</ele>
        <time>2024-02-11T22:41:35Z</time>
      </trkpt>
      <trkpt lat="48.56945" lon="-4.5746">
        <ele>44</ele>
        <time>2024-02-11T22:41:40Z</time>
      </trkpt>
      <trkpt lat="48.56948" lon="-4.57499">
        <ele>44</ele>
        <time>2024-02-11T22:41:45Z</time>
      </trkpt>
      <trkpt lat="48.56965" lon="-4.57607">
        <ele>43</ele>
        <time>2024-02-11T22:41:58Z</time>
      </trkpt>
      <trkpt lat="48.57001" lon="-4.57795">
        <ele>43</ele>
        <time>2024-02-11T22:42:21Z</time>
      </trkpt>
      <trkpt lat="48.57031" lon="-4.57888">
        <ele>44</ele>
        <time>2024-02-11T22:42:33Z</time>
      </trkpt>
      <trkpt lat="48.57086" lon="-4.5799">
        <ele>44</ele>
        <time>2024-02-11T22:42:49Z</time>
      </trkpt>
      <trkpt lat="48.57268" lon="-4.58248">
        <ele>37</ele>
        <time>2024-02-11T22:43:33Z</time>
      </trkpt>
      <trkpt lat="48.57294" lon="-4.58294">
        <ele>37</ele>
        <time>2024-02-11T22:43:40Z</time>
      </trkpt>
      <trkpt lat="48.57369" lon="-4.58443">
        <ele>38</ele>
        <time>2024-02-11T22:44:02Z</time>
      </trkpt>
      <trkpt lat="48.5739" lon="-4.58493">
        <ele>38</ele>
        <time>2024-02-11T22:44:09Z</time>
      </trkpt>
      <trkpt lat="48.57417" lon="-4.58585">
        <ele>38</ele>
        <time>2024-02-11T22:44:21Z</time>
      </trkpt>
      <trkpt lat="48.57495" lon="-4.58756">
        <ele>42</ele>
        <time>2024-02-11T22:44:45Z</time>
      </trkpt>
      <trkpt lat="48.57545" lon="-4.58842">
        <ele>41</ele>
        <time>2024-02-11T22:44:59Z</time>
      </trkpt>
      <trkpt lat="48.57588" lon="-4.59011">
        <ele>38</ele>
        <time>2024-02-11T22:45:20Z</time>
      </trkpt>
      <trkpt lat="48.5761" lon="-4.59063">
        <ele>37</ele>
        <time>2024-02-11T22:45:28Z</time>
      </trkpt>
      <trkpt lat="48.57648" lon="-4.59127">
        <ele>38</ele>
        <time>2024-02-11T22:45:38Z</time>
      </trkpt>
      <trkpt lat="48.57658" lon="-4.59226">
        <ele>36</ele>
        <time>2024-02-11T22:45:49Z</time>
      </trkpt>
      <trkpt lat="48.57686" lon="-4.5934">
        <ele>36</ele>
        <time>2024-02-11T22:46:04Z</time>
      </trkpt>
      <trkpt lat="48.57697" lon="-4.59419">
        <ele>38</ele>
        <time>2024-02-11T22:46:13Z</time>
      </trkpt>
      <trkpt lat="48.57724" lon="-4.59527">
        <ele>43</ele>
        <time>2024-02-11T22:46:27Z</time>
      </trkpt>
      <trkpt lat="48.57726" lon="-4.59557">
        <ele>43</ele>
        <time>2024-02-11T22:46:30Z</time>
      </trkpt>
      <trkpt lat="48.57723" lon="-4.59563">
        <ele>43</ele>
        <time>2024-02-11T22:46:31Z</time>
      </trkpt>
      <trkpt lat="48.57687" lon="-4.59589">
        <ele>42</ele>
        <time>2024-02-11T22:46:38Z</time>
      </trkpt>
      <trkpt lat="48.5768" lon="-4.59598">
        <ele>41</ele>
        <time>2024-02-11T22:46:40Z</time>
      </trkpt>
      <trkpt lat="48.57674" lon="-4.59619">
        <ele>41</ele>
        <time>2024-02-11T22:46:43Z</time>
      </trkpt>
      <trkpt lat="48.57668" lon="-4.59657">
        <ele>41</ele>
        <time>2024-02-11T22:46:47Z</time>
      </trkpt>
      <trkpt lat="48.57656" lon="-4.59672">
        <ele>40</ele>
        <time>2024-02-11T22:46:50Z</time>
      </trkpt>
      <trkpt lat="48.57632" lon="-4.59693">
        <ele>38</ele>
        <time>2024-02-11T22:46:55Z</time>
      </trkpt>
      <trkpt lat="48.57617" lon="-4.59724">
        <ele>37</ele>
        <time>2024-02-11T22:47:00Z</time>
      </trkpt>
      <trkpt lat="48.57612" lon="-4.59741">
        <ele>37</ele>
        <time>2024-02-11T22:47:02Z</time>
      </trkpt>
      <trkpt lat="48.57612" lon="-4.59772">
        <ele>37</ele>
        <time>2024-02-11T22:47:05Z</time>
      </trkpt>
      <trkpt lat="48.57608" lon="-4.59793">
        <ele>37</ele>
        <time>2024-02-11T22:47:08Z</time>
      </trkpt>
      <trkpt lat="48.57591" lon="-4.59829">
        <ele>36</ele>
        <time>2024-02-11T22:47:13Z</time>
      </trkpt>
      <trkpt lat="48.57584" lon="-4.59854">
        <ele>36</ele>
        <time>2024-02-11T22:47:16Z</time>
      </trkpt>
      <trkpt lat="48.57586" lon="-4.59882">
        <ele>35</ele>
        <time>2024-02-11T22:47:20Z</time>
      </trkpt>
      <trkpt lat="48.57594" lon="-4.59876">
        <ele>35</ele>
        <time>2024-02-11T22:47:21Z</time>
      </trkpt>
      <trkpt lat="48.57653" lon="-4.59873">
        <ele>38</ele>
        <time>2024-02-11T22:47:32Z</time>
      </trkpt>
      <trkpt lat="48.57665" lon="-4.5987">
        <ele>39</ele>
        <time>2024-02-11T22:47:34Z</time>
      </trkpt>
      <trkpt lat="48.57696" lon="-4.59845">
        <ele>40</ele>
        <time>2024-02-11T22:47:40Z</time>
      </trkpt>
      <trkpt lat="48.57717" lon="-4.59832">
        <ele>40</ele>
        <time>2024-02-11T22:47:44Z</time>
      </trkpt>
      <trkpt lat="48.57763" lon="-4.59837">
        <ele>40</ele>
        <time>2024-02-11T22:47:52Z</time>
      </trkpt>
      <trkpt lat="48.57795" lon="-4.59844">
        <ele>39</ele>
        <time>2024-02-11T22:47:58Z</time>
      </trkpt>
      <trkpt lat="48.57812" lon="-4.59963">
        <ele>34</ele>
        <time>2024-02-11T22:48:12Z</time>
      </trkpt>
      <trkpt lat="48.57813" lon="-4.59976">
        <ele>34</ele>
        <time>2024-02-11T22:48:14Z</time>
      </trkpt>
      <trkpt lat="48.5781" lon="-4.60003">
        <ele>33</ele>
        <time>2024-02-11T22:48:17Z</time>
      </trkpt>
      <trkpt lat="48.57813" lon="-4.60048">
        <ele>33</ele>
        <time>2024-02-11T22:48:23Z</time>
      </trkpt>
      <trkpt lat="48.57828" lon="-4.60129">
        <ele>35</ele>
        <time>2024-02-11T22:48:32Z</time>
      </trkpt>
      <trkpt lat="48.57841" lon="-4.60278">
        <ele>35</ele>
        <time>2024-02-11T22:48:50Z</time>
      </trkpt>
      <trkpt lat="48.57837" lon="-4.60304">
        <ele>36</ele>
        <time>2024-02-11T22:48:53Z</time>
      </trkpt>
      <trkpt lat="48.57798" lon="-4.60348">
        <ele>36</ele>
        <time>2024-02-11T22:49:02Z</time>
      </trkpt>
      <trkpt lat="48.57792" lon="-4.60366">
        <ele>36</ele>
        <time>2024-02-11T22:49:04Z</time>
      </trkpt>
      <trkpt lat="48.57802" lon="-4.60381">
        <ele>36</ele>
        <time>2024-02-11T22:49:07Z</time>
      </trkpt>
      <trkpt lat="48.5781" lon="-4.60401">
        <ele>36</ele>
        <time>2024-02-11T22:49:10Z</time>
      </trkpt>
      <trkpt lat="48.5784" lon="-4.60514">
        <ele>37</ele>
        <time>2024-02-11T22:49:24Z</time>
      </trkpt>
      <trkpt lat="48.57851" lon="-4.60525">
        <ele>36</ele>
        <time>2024-02-11T22:49:26Z</time>
      </trkpt>
      <trkpt lat="48.57856" lon="-4.60525">
        <ele>36</ele>
        <time>2024-02-11T22:49:27Z</time>
      </trkpt>
      <trkpt lat="48.57888" lon="-4.60491">
        <ele>36</ele>
        <time>2024-02-11T22:49:34Z</time>
      </trkpt>
      <trkpt lat="48.57907" lon="-4.6048">
        <ele>35</ele>
        <time>2024-02-11T22:49:38Z</time>
      </trkpt>
      <trkpt lat="48.5794" lon="-4.60469">
        <ele>32</ele>
        <time>2024-02-11T22:49:44Z</time>
      </trkpt>
      <trkpt lat="48.57988" lon="-4.60469">
        <ele>27</ele>
        <time>2024-02-11T22:49:52Z</time>
      </trkpt>
      <trkpt lat="48.58" lon="-4.60472">
        <ele>26</ele>
        <time>2024-02-11T22:49:54Z</time>
      </trkpt>
      <trkpt lat="48.58035" lon="-4.60501">
        <ele>20</ele>
        <time>2024-02-11T22:50:02Z</time>
      </trkpt>
      <trkpt lat="48.58042" lon="-4.60498">
        <ele>19</ele>
        <time>2024-02-11T22:50:03Z</time>
      </trkpt>
      <trkpt lat="48.58048" lon="-4.6049">
        <ele>18</ele>
        <time>2024-02-11T22:50:04Z</time>
      </trkpt>
      <trkpt lat="48.58061" lon="-4.60362">
        <ele>16</ele>
        <time>2024-02-11T22:50:20Z</time>
      </trkpt>
      <trkpt lat="48.58066" lon="-4.60351">
        <ele>16</ele>
        <time>2024-02-11T22:50:21Z</time>
      </trkpt>
      <trkpt lat="48.58076" lon="-4.60342">
        <ele>15</ele>
        <time>2024-02-11T22:50:23Z</time>
      </trkpt>
      <trkpt lat="48.58124" lon="-4.60328">
        <ele>10</ele>
        <time>2024-02-11T22:50:32Z</time>
      </trkpt>
      <trkpt lat="48.58127" lon="-4.60324">
        <ele>10</ele>
        <time>2024-02-11T22:50:33Z</time>
      </trkpt>
      <trkpt lat="48.58131" lon="-4.60296">
        <ele>10</ele>
        <time>2024-02-11T22:50:36Z</time>
      </trkpt>
      <trkpt lat="48.58146" lon="-4.60275">
        <ele>9</ele>
        <time>2024-02-11T22:50:40Z</time>
      </trkpt>
      <trkpt lat="48.58161" lon="-4.60268">
        <ele>8</ele>
        <time>2024-02-11T22:50:42Z</time>
      </trkpt>
      <trkpt lat="48.58175" lon="-4.60266">
        <ele>7</ele>
        <time>2024-02-11T22:50:45Z</time>
      </trkpt>
      <trkpt lat="48.58208" lon="-4.60279">
        <ele>6</ele>
        <time>2024-02-11T22:50:51Z</time>
      </trkpt>
      <trkpt lat="48.58233" lon="-4.60284">
        <ele>4</ele>
        <time>2024-02-11T22:50:55Z</time>
      </trkpt>
      <trkpt lat="48.58242" lon="-4.60282">
        <ele>4</ele>
        <time>2024-02-11T22:50:57Z</time>
      </trkpt>
      <trkpt lat="48.58354" lon="-4.60232">
        <ele>4</ele>
        <time>2024-02-11T22:51:18Z</time>
      </trkpt>
      <trkpt lat="48.58424" lon="-4.60216">
        <ele>4</ele>
        <time>2024-02-11T22:51:30Z</time>
      </trkpt>
      <trkpt lat="48.58438" lon="-4.60208">
        <ele>4</ele>
        <time>2024-02-11T22:51:33Z</time>
      </trkpt>
      <trkpt lat="48.58476" lon="-4.60175">
        <ele>4</ele>
        <time>2024-02-11T22:51:41Z</time>
      </trkpt>
      <trkpt lat="48.58483" lon="-4.60166">
        <ele>4</ele>
        <time>2024-02-11T22:51:43Z</time>
      </trkpt>
      <trkpt lat="48.58499" lon="-4.6014">
        <ele>4</ele>
        <time>2024-02-11T22:51:47Z</time>
      </trkpt>
      <trkpt lat="48.58518" lon="-4.60101">
        <ele>5</ele>
        <time>2024-02-11T22:51:52Z</time>
      </trkpt>
      <trkpt lat="48.5854" lon="-4.60069">
        <ele>5</ele>
        <time>2024-02-11T22:51:58Z</time>
      </trkpt>
      <trkpt lat="48.58596" lon="-4.6003">
        <ele>5</ele>
        <time>2024-02-11T22:52:09Z</time>
      </trkpt>
      <trkpt lat="48.58642" lon="-4.60022">
        <ele>6</ele>
        <time>2024-02-11T22:52:17Z</time>
      </trkpt>
      <trkpt lat="48.58659" lon="-4.60014">
        <ele>7</ele>
        <time>2024-02-11T22:52:20Z</time>
      </trkpt>
      <trkpt lat="48.58673" lon="-4.60004">
        <ele>7</ele>
        <time>2024-02-11T22:52:23Z</time>
      </trkpt>
      <trkpt lat="48.58687" lon="-4.59987">
        <ele>7</ele>
        <time>2024-02-11T22:52:26Z</time>
      </trkpt>
      <trkpt lat="48.58765" lon="-4.59938">
        <ele>6</ele>
        <time>2024-02-11T22:52:41Z</time>
      </trkpt>
      <trkpt lat="48.58783" lon="-4.5992">
        <ele>6</ele>
        <time>2024-02-11T22:52:45Z</time>
      </trkpt>
      <trkpt lat="48.5881" lon="-4.59886">
        <ele>7</ele>
        <time>2024-02-11T22:52:51Z</time>
      </trkpt>
      <trkpt lat="48.58818" lon="-4.59882">
        <ele>7</ele>
        <time>2024-02-11T22:52:53Z</time>
      </trkpt>
      <trkpt lat="48.58838" lon="-4.59874">
        <ele>8</ele>
        <time>2024-02-11T22:52:56Z</time>
      </trkpt>
      <trkpt lat="48.5886" lon="-4.59914">
        <ele>7</ele>
        <time>2024-02-11T22:53:03Z</time>
      </trkpt>
      <trkpt lat="48.58897" lon="-4.59965">
        <ele>6</ele>
        <time>2024-02-11T22:53:12Z</time>
      </trkpt>
      <trkpt lat="48.58919" lon="-4.5999">
        <ele>5</ele>
        <time>2024-02-11T22:53:16Z</time>
      </trkpt>
      <trkpt lat="48.58954" lon="-4.60021">
        <ele>6</ele>
        <time>2024-02-11T22:53:24Z</time>
      </trkpt>
      <trkpt lat="48.58964" lon="-4.60021">
        <ele>6</ele>
        <time>2024-02-11T22:53:25Z</time>
      </trkpt>
      <trkpt lat="48.58975" lon="-4.60016">
        <ele>6</ele>
        <time>2024-02-11T22:53:27Z</time>
      </trkpt>
      <trkpt lat="48.58989" lon="-4.60002">
        <ele>7</ele>
        <time>2024-02-11T22:53:30Z</time>
      </trkpt>
      <trkpt lat="48.59053" lon="-4.59898">
        <ele>8</ele>
        <time>2024-02-11T22:53:47Z</time>
      </trkpt>
      <trkpt lat="48.59094" lon="-4.59849">
        <ele>8</ele>
        <time>2024-02-11T22:53:56Z</time>
      </trkpt>
      <trkpt lat="48.59135" lon="-4.5981">
        <ele>7</ele>
        <time>2024-02-11T22:54:05Z</time>
      </trkpt>
      <trkpt lat="48.59146" lon="-4.59806">
        <ele>7</ele>
        <time>2024-02-11T22:54:07Z</time>
      </trkpt>
      <trkpt lat="48.59145" lon="-4.59798">
        <ele>7</ele>
        <time>2024-02-11T22:54:08Z</time>
      </trkpt>
      <trkpt lat="48.59149" lon="-4.59792">
        <ele>7</ele>
        <time>2024-02-11T22:54:09Z</time>
      </trkpt>
      <trkpt lat="48.59153" lon="-4.59792">
        <ele>7</ele>
        <time>2024-02-11T22:54:10Z</time>
      </trkpt>
      <trkpt lat="48.59155" lon="-4.59796">
        <ele>7</ele>
        <time>2024-02-11T22:54:10Z</time>
      </trkpt>
      <trkpt lat="48.59175" lon="-4.59767">
        <ele>7</ele>
        <time>2024-02-11T22:54:15Z</time>
      </trkpt>
      <trkpt lat="48.59267" lon="-4.59694">
        <ele>4</ele>
        <time>2024-02-11T22:54:34Z</time>
      </trkpt>
      <trkpt lat="48.59275" lon="-4.59685">
        <ele>4</ele>
        <time>2024-02-11T22:54:36Z</time>
      </trkpt>
      <trkpt lat="48.59291" lon="-4.59656">
        <ele>4</ele>
        <time>2024-02-11T22:54:40Z</time>
      </trkpt>
      <trkpt lat="48.59318" lon="-4.59576">
        <ele>4</ele>
        <time>2024-02-11T22:54:51Z</time>
      </trkpt>
      <trkpt lat="48.59328" lon="-4.59393">
        <ele>2</ele>
        <time>2024-02-11T22:55:12Z</time>
      </trkpt>
      <trkpt lat="48.59326" lon="-4.59344">
        <ele>2</ele>
        <time>2024-02-11T22:55:18Z</time>
      </trkpt>
      <trkpt lat="48.59318" lon="-4.59285">
        <ele>4</ele>
        <time>2024-02-11T22:55:25Z</time>
      </trkpt>
      <trkpt lat="48.59291" lon="-4.59131">
        <ele>10</ele>
        <time>2024-02-11T22:55:44Z</time>
      </trkpt>
      <trkpt lat="48.59287" lon="-4.59089">
        <ele>10</ele>
        <time>2024-02-11T22:55:49Z</time>
      </trkpt>
      <trkpt lat="48.59273" lon="-4.59035">
        <ele>11</ele>
        <time>2024-02-11T22:55:56Z</time>
      </trkpt>
      <trkpt lat="48.5921" lon="-4.58628">
        <ele>26</ele>
        <time>2024-02-11T22:56:45Z</time>
      </trkpt>
      <trkpt lat="48.59194" lon="-4.58565">
        <ele>29</ele>
        <time>2024-02-11T22:56:53Z</time>
      </trkpt>
      <trkpt lat="48.59175" lon="-4.58506">
        <ele>32</ele>
        <time>2024-02-11T22:57:00Z</time>
      </trkpt>
      <trkpt lat="48.59163" lon="-4.58474">
        <ele>33</ele>
        <time>2024-02-11T22:57:05Z</time>
      </trkpt>
      <trkpt lat="48.59158" lon="-4.58469">
        <ele>33</ele>
        <time>2024-02-11T22:57:06Z</time>
      </trkpt>
      <trkpt lat="48.5914" lon="-4.5843">
        <ele>34</ele>
        <time>2024-02-11T22:57:11Z</time>
      </trkpt>
      <trkpt lat="48.5914" lon="-4.58424">
        <ele>34</ele>
        <time>2024-02-11T22:57:12Z</time>
      </trkpt>
      <trkpt lat="48.59146" lon="-4.5842">
        <ele>34</ele>
        <time>2024-02-11T22:57:13Z</time>
      </trkpt>
      <trkpt lat="48.5916" lon="-4.58401">
        <ele>33</ele>
        <time>2024-02-11T22:57:17Z</time>
      </trkpt>
      <trkpt lat="48.59168" lon="-4.58398">
        <ele>33</ele>
        <time>2024-02-11T22:57:18Z</time>
      </trkpt>
      <trkpt lat="48.59166" lon="-4.58405">
        <ele>33</ele>
        <time>2024-02-11T22:57:19Z</time>
      </trkpt>
      <trkpt lat="48.59149" lon="-4.58425">
        <ele>34</ele>
        <time>2024-02-11T22:57:23Z</time>
      </trkpt>
      <trkpt lat="48.59147" lon="-4.58433">
        <ele>34</ele>
        <time>2024-02-11T22:57:24Z</time>
      </trkpt>
      <trkpt lat="48.59142" lon="-4.58434">
        <ele>34</ele>
        <time>2024-02-11T22:57:25Z</time>
      </trkpt>
      <trkpt lat="48.5914" lon="-4.58424">
        <ele>34</ele>
        <time>2024-02-11T22:57:26Z</time>
      </trkpt>
      <trkpt lat="48.59146" lon="-4.5842">
        <ele>34</ele>
        <time>2024-02-11T22:57:27Z</time>
      </trkpt>
      <trkpt lat="48.5916" lon="-4.58401">
        <ele>33</ele>
        <time>2024-02-11T22:57:31Z</time>
      </trkpt>
      <trkpt lat="48.59168" lon="-4.58398">
        <ele>33</ele>
        <time>2024-02-11T22:57:32Z</time>
      </trkpt>
      <trkpt lat="48.59237" lon="-4.58324">
        <ele>28</ele>
        <time>2024-02-11T22:57:47Z</time>
      </trkpt>
      <trkpt lat="48.59257" lon="-4.58298">
        <ele>26</ele>
        <time>2024-02-11T22:57:52Z</time>
      </trkpt>
      <trkpt lat="48.59267" lon="-4.5828">
        <ele>24</ele>
        <time>2024-02-11T22:57:54Z</time>
      </trkpt>
      <trkpt lat="48.59285" lon="-4.58234">
        <ele>22</ele>
        <time>2024-02-11T22:58:01Z</time>
      </trkpt>
      <trkpt lat="48.59294" lon="-4.58204">
        <ele>21</ele>
        <time>2024-02-11T22:58:05Z</time>
      </trkpt>
      <trkpt lat="48.59299" lon="-4.58172">
        <ele>20</ele>
        <time>2024-02-11T22:58:09Z</time>
      </trkpt>
      <trkpt lat="48.59312" lon="-4.57983">
        <ele>18</ele>
        <time>2024-02-11T22:58:31Z</time>
      </trkpt>
      <trkpt lat="48.59326" lon="-4.57895">
        <ele>22</ele>
        <time>2024-02-11T22:58:42Z</time>
      </trkpt>
      <trkpt lat="48.59433" lon="-4.57564">
        <ele>21</ele>
        <time>2024-02-11T22:59:25Z</time>
      </trkpt>
      <trkpt lat="48.59458" lon="-4.575">
        <ele>19</ele>
        <time>2024-02-11T22:59:34Z</time>
      </trkpt>
      <trkpt lat="48.59509" lon="-4.57385">
        <ele>19</ele>
        <time>2024-02-11T22:59:50Z</time>
      </trkpt>
      <trkpt lat="48.5953" lon="-4.57318">
        <ele>17</ele>
        <time>2024-02-11T22:59:59Z</time>
      </trkpt>
      <trkpt lat="48.5959" lon="-4.57062">
        <ele>9</ele>
        <time>2024-02-11T23:00:31Z</time>
      </trkpt>
      <trkpt lat="48.59628" lon="-4.57049">
        <ele>5</ele>
        <time>2024-02-11T23:00:38Z</time>
      </trkpt>
      <trkpt lat="48.59637" lon="-4.57038">
        <ele>4</ele>
        <time>2024-02-11T23:00:40Z</time>
      </trkpt>
      <trkpt lat="48.59637" lon="-4.5703">
        <ele>4</ele>
        <time>2024-02-11T23:00:41Z</time>
      </trkpt>
      <trkpt lat="48.59645" lon="-4.5701">
        <ele>4</ele>
        <time>2024-02-11T23:00:43Z</time>
      </trkpt>
      <trkpt lat="48.5972" lon="-4.56881">
        <ele>7</ele>
        <time>2024-02-11T23:01:04Z</time>
      </trkpt>
      <trkpt lat="48.59763" lon="-4.56845">
        <ele>6</ele>
        <time>2024-02-11T23:01:12Z</time>
      </trkpt>
      <trkpt lat="48.59766" lon="-4.56821">
        <ele>7</ele>
        <time>2024-02-11T23:01:15Z</time>
      </trkpt>
      <trkpt lat="48.59749" lon="-4.56713">
        <ele>12</ele>
        <time>2024-02-11T23:01:28Z</time>
      </trkpt>
      <trkpt lat="48.59778" lon="-4.56519">
        <ele>13</ele>
        <time>2024-02-11T23:01:52Z</time>
      </trkpt>
      <trkpt lat="48.59788" lon="-4.56484">
        <ele>11</ele>
        <time>2024-02-11T23:01:56Z</time>
      </trkpt>
      <trkpt lat="48.59819" lon="-4.56426">
        <ele>4</ele>
        <time>2024-02-11T23:02:05Z</time>
      </trkpt>
      <trkpt lat="48.59786" lon="-4.56333">
        <ele>9</ele>
        <time>2024-02-11T23:02:17Z</time>
      </trkpt>
      <trkpt lat="48.59764" lon="-4.56301">
        <ele>9</ele>
        <time>2024-02-11T23:02:23Z</time>
      </trkpt>
      <trkpt lat="48.59756" lon="-4.56281">
        <ele>8</ele>
        <time>2024-02-11T23:02:25Z</time>
      </trkpt>
      <trkpt lat="48.59725" lon="-4.56226">
        <ele>9</ele>
        <time>2024-02-11T23:02:34Z</time>
      </trkpt>
      <trkpt lat="48.59708" lon="-4.56187">
        <ele>7</ele>
        <time>2024-02-11T23:02:39Z</time>
      </trkpt>
      <trkpt lat="48.59684" lon="-4.56149">
        <ele>6</ele>
        <time>2024-02-11T23:02:46Z</time>
      </trkpt>
      <trkpt lat="48.59533" lon="-4.55948">
        <ele>5</ele>
        <time>2024-02-11T23:03:21Z</time>
      </trkpt>
      <trkpt lat="48.5948" lon="-4.55873">
        <ele>7</ele>
        <time>2024-02-11T23:03:34Z</time>
      </trkpt>
      <trkpt lat="48.59448" lon="-4.55813">
        <ele>8</ele>
        <time>2024-02-11T23:03:43Z</time>
      </trkpt>
      <trkpt lat="48.59428" lon="-4.55788">
        <ele>8</ele>
        <time>2024-02-11T23:03:48Z</time>
      </trkpt>
      <trkpt lat="48.59417" lon="-4.55778">
        <ele>8</ele>
        <time>2024-02-11T23:03:50Z</time>
      </trkpt>
      <trkpt lat="48.59396" lon="-4.55765">
        <ele>8</ele>
        <time>2024-02-11T23:03:54Z</time>
      </trkpt>
      <trkpt lat="48.59248" lon="-4.55732">
        <ele>14</ele>
        <time>2024-02-11T23:04:21Z</time>
      </trkpt>
      <trkpt lat="48.59211" lon="-4.5573">
        <ele>17</ele>
        <time>2024-02-11T23:04:28Z</time>
      </trkpt>
      <trkpt lat="48.59183" lon="-4.55732">
        <ele>19</ele>
        <time>2024-02-11T23:04:33Z</time>
      </trkpt>
      <trkpt lat="48.59153" lon="-4.55731">
        <ele>21</ele>
        <time>2024-02-11T23:04:38Z</time>
      </trkpt>
      <trkpt lat="48.59132" lon="-4.55726">
        <ele>23</ele>
        <time>2024-02-11T23:04:42Z</time>
      </trkpt>
      <trkpt lat="48.59111" lon="-4.55714">
        <ele>25</ele>
        <time>2024-02-11T23:04:46Z</time>
      </trkpt>
      <trkpt lat="48.59007" lon="-4.55635">
        <ele>31</ele>
        <time>2024-02-11T23:05:06Z</time>
      </trkpt>
      <trkpt lat="48.58913" lon="-4.5558">
        <ele>31</ele>
        <time>2024-02-11T23:05:24Z</time>
      </trkpt>
      <trkpt lat="48.58785" lon="-4.55433">
        <ele>37</ele>
        <time>2024-02-11T23:05:53Z</time>
      </trkpt>
      <trkpt lat="48.58764" lon="-4.55416">
        <ele>39</ele>
        <time>2024-02-11T23:05:57Z</time>
      </trkpt>
      <trkpt lat="48.58743" lon="-4.5541">
        <ele>39</ele>
        <time>2024-02-11T23:06:01Z</time>
      </trkpt>
      <trkpt lat="48.58716" lon="-4.55414">
        <ele>40</ele>
        <time>2024-02-11T23:06:06Z</time>
      </trkpt>
      <trkpt lat="48.58626" lon="-4.55447">
        <ele>40</ele>
        <time>2024-02-11T23:06:22Z</time>
      </trkpt>
      <trkpt lat="48.58564" lon="-4.55457">
        <ele>41</ele>
        <time>2024-02-11T23:06:33Z</time>
      </trkpt>
      <trkpt lat="48.58454" lon="-4.55463">
        <ele>44</ele>
        <time>2024-02-11T23:06:53Z</time>
      </trkpt>
      <trkpt lat="48.58402" lon="-4.55474">
        <ele>44</ele>
        <time>2024-02-11T23:07:02Z</time>
      </trkpt>
      <trkpt lat="48.58353" lon="-4.55494">
        <ele>45</ele>
        <time>2024-02-11T23:07:11Z</time>
      </trkpt>
      <trkpt lat="48.58351" lon="-4.55512">
        <ele>45</ele>
        <time>2024-02-11T23:07:13Z</time>
      </trkpt>
      <trkpt lat="48.58341" lon="-4.55522">
        <ele>45</ele>
        <time>2024-02-11T23:07:16Z</time>
      </trkpt>
      <trkpt lat="48.58333" lon="-4.55521">
        <ele>45</ele>
        <time>2024-02-11T23:07:17Z</time>
      </trkpt>
      <trkpt lat="48.58327" lon="-4.55514">
        <ele>45</ele>
        <time>2024-02-11T23:07:18Z</time>
      </trkpt>
      <trkpt lat="48.58323" lon="-4.55504">
        <ele>45</ele>
        <time>2024-02-11T23:07:20Z</time>
      </trkpt>
      <trkpt lat="48.58323" lon="-4.55496">
        <ele>45</ele>
        <time>2024-02-11T23:07:21Z</time>
      </trkpt>
      <trkpt lat="48.58288" lon="-4.55491">
        <ele>46</ele>
        <time>2024-02-11T23:07:27Z</time>
      </trkpt>
      <trkpt lat="48.58185" lon="-4.55503">
        <ele>45</ele>
        <time>2024-02-11T23:07:45Z</time>
      </trkpt>
      <trkpt lat="48.58165" lon="-4.55503">
        <ele>45</ele>
        <time>2024-02-11T23:07:49Z</time>
      </trkpt>
      <trkpt lat="48.58114" lon="-4.5549">
        <ele>46</ele>
        <time>2024-02-11T23:07:58Z</time>
      </trkpt>
      <trkpt lat="48.5805" lon="-4.55464">
        <ele>45</ele>
        <time>2024-02-11T23:08:10Z</time>
      </trkpt>
      <trkpt lat="48.58009" lon="-4.5544">
        <ele>45</ele>
        <time>2024-02-11T23:08:18Z</time>
      </trkpt>
      <trkpt lat="48.57998" lon="-4.55431">
        <ele>44</ele>
        <time>2024-02-11T23:08:20Z</time>
      </trkpt>
      <trkpt lat="48.5796" lon="-4.55383">
        <ele>44</ele>
        <time>2024-02-11T23:08:29Z</time>
      </trkpt>
      <trkpt lat="48.57928" lon="-4.55318">
        <ele>45</ele>
        <time>2024-02-11T23:08:38Z</time>
      </trkpt>
      <trkpt lat="48.57876" lon="-4.55153">
        <ele>45</ele>
        <time>2024-02-11T23:09:00Z</time>
      </trkpt>
      <trkpt lat="48.57826" lon="-4.55011">
        <ele>42</ele>
        <time>2024-02-11T23:09:19Z</time>
      </trkpt>
      <trkpt lat="48.57811" lon="-4.54962">
        <ele>42</ele>
        <time>2024-02-11T23:09:25Z</time>
      </trkpt>
      <trkpt lat="48.57791" lon="-4.54858">
        <ele>43</ele>
        <time>2024-02-11T23:09:38Z</time>
      </trkpt>
      <trkpt lat="48.57769" lon="-4.54797">
        <ele>44</ele>
        <time>2024-02-11T23:09:46Z</time>
      </trkpt>
      <trkpt lat="48.5764" lon="-4.5461">
        <ele>42</ele>
        <time>2024-02-11T23:10:18Z</time>
      </trkpt>
      <trkpt lat="48.57622" lon="-4.54573">
        <ele>42</ele>
        <time>2024-02-11T23:10:23Z</time>
      </trkpt>
      <trkpt lat="48.5759" lon="-4.54444">
        <ele>41</ele>
        <time>2024-02-11T23:10:39Z</time>
      </trkpt>
      <trkpt lat="48.57503" lon="-4.54152">
        <ele>46</ele>
        <time>2024-02-11T23:11:17Z</time>
      </trkpt>
      <trkpt lat="48.57491" lon="-4.54122">
        <ele>46</ele>
        <time>2024-02-11T23:11:21Z</time>
      </trkpt>
      <trkpt lat="48.57392" lon="-4.53933">
        <ele>47</ele>
        <time>2024-02-11T23:11:50Z</time>
      </trkpt>
      <trkpt lat="48.57384" lon="-4.53913">
        <ele>47</ele>
        <time>2024-02-11T23:11:52Z</time>
      </trkpt>
      <trkpt lat="48.57373" lon="-4.53866">
        <ele>47</ele>
        <time>2024-02-11T23:11:58Z</time>
      </trkpt>
      <trkpt lat="48.57369" lon="-4.53813">
        <ele>48</ele>
        <time>2024-02-11T23:12:05Z</time>
      </trkpt>
      <trkpt lat="48.57381" lon="-4.53475">
        <ele>49</ele>
        <time>2024-02-11T23:12:44Z</time>
      </trkpt>
      <trkpt lat="48.5738" lon="-4.53436">
        <ele>49</ele>
        <time>2024-02-11T23:12:49Z</time>
      </trkpt>
      <trkpt lat="48.57373" lon="-4.53366">
        <ele>49</ele>
        <time>2024-02-11T23:12:57Z</time>
      </trkpt>
      <trkpt lat="48.57342" lon="-4.53246">
        <ele>48</ele>
        <time>2024-02-11T23:13:12Z</time>
      </trkpt>
      <trkpt lat="48.57302" lon="-4.53015">
        <ele>47</ele>
        <time>2024-02-11T23:13:41Z</time>
      </trkpt>
      <trkpt lat="48.57243" lon="-4.52731">
        <ele>44</ele>
        <time>2024-02-11T23:14:16Z</time>
      </trkpt>
      <trkpt lat="48.57198" lon="-4.52422">
        <ele>41</ele>
        <time>2024-02-11T23:14:53Z</time>
      </trkpt>
      <trkpt lat="48.57193" lon="-4.52406">
        <ele>41</ele>
        <time>2024-02-11T23:14:55Z</time>
      </trkpt>
      <trkpt lat="48.57186" lon="-4.52395">
        <ele>41</ele>
        <time>2024-02-11T23:14:57Z</time>
      </trkpt>
      <trkpt lat="48.57157" lon="-4.52374">
        <ele>41</ele>
        <time>2024-02-11T23:15:02Z</time>
      </trkpt>
      <trkpt lat="48.57138" lon="-4.52355">
        <ele>41</ele>
        <time>2024-02-11T23:15:07Z</time>
      </trkpt>
      <trkpt lat="48.57023" lon="-4.52229">
        <ele>45</ele>
        <time>2024-02-11T23:15:32Z</time>
      </trkpt>
      <trkpt lat="48.57002" lon="-4.52203">
        <ele>46</ele>
        <time>2024-02-11T23:15:37Z</time>
      </trkpt>
      <trkpt lat="48.57001" lon="-4.52195">
        <ele>46</ele>
        <time>2024-02-11T23:15:38Z</time>
      </trkpt>
      <trkpt lat="48.56981" lon="-4.52205">
        <ele>46</ele>
        <time>2024-02-11T23:15:41Z</time>
      </trkpt>
      <trkpt lat="48.56958" lon="-4.52207">
        <ele>46</ele>
        <time>2024-02-11T23:15:45Z</time>
      </trkpt>
      <trkpt lat="48.56962" lon="-4.52221">
        <ele>46</ele>
        <time>2024-02-11T23:15:47Z</time>
      </trkpt>
      <trkpt lat="48.56932" lon="-4.52241">
        <ele>46</ele>
        <time>2024-02-11T23:15:53Z</time>
      </trkpt>
      <trkpt lat="48.5692" lon="-4.52245">
        <ele>46</ele>
        <time>2024-02-11T23:15:55Z</time>
      </trkpt>
      <trkpt lat="48.5691" lon="-4.52245">
        <ele>46</ele>
        <time>2024-02-11T23:15:57Z</time>
      </trkpt>
      <trkpt lat="48.56906" lon="-4.52271">
        <ele>44</ele>
        <time>2024-02-11T23:16:00Z</time>
      </trkpt>
      <trkpt lat="48.56894" lon="-4.52275">
        <ele>44</ele>
        <time>2024-02-11T23:16:02Z</time>
      </trkpt>
      <trkpt lat="48.56852" lon="-4.52268">
        <ele>42</ele>
        <time>2024-02-11T23:16:10Z</time>
      </trkpt>
      <trkpt lat="48.56813" lon="-4.52269">
        <ele>39</ele>
        <time>2024-02-11T23:16:17Z</time>
      </trkpt>
      <trkpt lat="48.568" lon="-4.52272">
        <ele>38</ele>
        <time>2024-02-11T23:16:19Z</time>
      </trkpt>
      <trkpt lat="48.56749" lon="-4.52302">
        <ele>34</ele>
        <time>2024-02-11T23:16:29Z</time>
      </trkpt>
      <trkpt lat="48.56735" lon="-4.52312">
        <ele>33</ele>
        <time>2024-02-11T23:16:32Z</time>
      </trkpt>
      <trkpt lat="48.56656" lon="-4.5239">
        <ele>28</ele>
        <time>2024-02-11T23:16:48Z</time>
      </trkpt>
      <trkpt lat="48.56618" lon="-4.52432">
        <ele>29</ele>
        <time>2024-02-11T23:16:57Z</time>
      </trkpt>
      <trkpt lat="48.56573" lon="-4.52489">
        <ele>33</ele>
        <time>2024-02-11T23:17:07Z</time>
      </trkpt>
      <trkpt lat="48.56555" lon="-4.52517">
        <ele>34</ele>
        <time>2024-02-11T23:17:12Z</time>
      </trkpt>
      <trkpt lat="48.56533" lon="-4.52559">
        <ele>35</ele>
        <time>2024-02-11T23:17:18Z</time>
      </trkpt>
      <trkpt lat="48.56522" lon="-4.52574">
        <ele>36</ele>
        <time>2024-02-11T23:17:21Z</time>
      </trkpt>
      <trkpt lat="48.56526" lon="-4.52609">
        <ele>36</ele>
        <time>2024-02-11T23:17:25Z</time>
      </trkpt>
      <trkpt lat="48.56525" lon="-4.52618">
        <ele>36</ele>
        <time>2024-02-11T23:17:26Z</time>
      </trkpt>
      <trkpt lat="48.56518" lon="-4.52625">
        <ele>36</ele>
        <time>2024-02-11T23:17:28Z</time>
      </trkpt>
      <trkpt lat="48.56512" lon="-4.52622">
        <ele>36</ele>
        <time>2024-02-11T23:17:29Z</time>
      </trkpt>
      <trkpt lat="48.56499" lon="-4.5265">
        <ele>37</ele>
        <time>2024-02-11T23:17:33Z</time>
      </trkpt>
      <trkpt lat="48.5647" lon="-4.52778">
        <ele>37</ele>
        <time>2024-02-11T23:17:49Z</time>
      </trkpt>
      <trkpt lat="48.56445" lon="-4.52864">
        <ele>37</ele>
        <time>2024-02-11T23:18:00Z</time>
      </trkpt>
      <trkpt lat="48.56409" lon="-4.52939">
        <ele>38</ele>
        <time>2024-02-11T23:18:11Z</time>
      </trkpt>
      <trkpt lat="48.56344" lon="-4.53042">
        <ele>35</ele>
        <time>2024-02-11T23:18:27Z</time>
      </trkpt>
      <trkpt lat="48.56318" lon="-4.53081">
        <ele>34</ele>
        <time>2024-02-11T23:18:34Z</time>
      </trkpt>
      <trkpt lat="48.56279" lon="-4.53122">
        <ele>34</ele>
        <time>2024-02-11T23:18:42Z</time>
      </trkpt>
      <trkpt lat="48.5625" lon="-4.53143">
        <ele>35</ele>
        <time>2024-02-11T23:18:48Z</time>
      </trkpt>
      <trkpt lat="48.56106" lon="-4.53209">
        <ele>33</ele>
        <time>2024-02-11T23:19:15Z</time>
      </trkpt>
      <trkpt lat="48.5606" lon="-4.53239">
        <ele>31</ele>
        <time>2024-02-11T23:19:24Z</time>
      </trkpt>
      <trkpt lat="48.55969" lon="-4.53304">
        <ele>24</ele>
        <time>2024-02-11T23:19:42Z</time>
      </trkpt>
      <trkpt lat="48.55929" lon="-4.53321">
        <ele>21</ele>
        <time>2024-02-11T23:19:49Z</time>
      </trkpt>
      <trkpt lat="48.55903" lon="-4.53329">
        <ele>19</ele>
        <time>2024-02-11T23:19:54Z</time>
      </trkpt>
      <trkpt lat="48.55623" lon="-4.5336">
        <ele>5</ele>
        <time>2024-02-11T23:20:44Z</time>
      </trkpt>
      <trkpt lat="48.55594" lon="-4.53365">
        <ele>4</ele>
        <time>2024-02-11T23:20:49Z</time>
      </trkpt>
      <trkpt lat="48.55568" lon="-4.53373">
        <ele>3</ele>
        <time>2024-02-11T23:20:54Z</time>
      </trkpt>
      <trkpt lat="48.55548" lon="-4.53383">
        <ele>2</ele>
        <time>2024-02-11T23:20:57Z</time>
      </trkpt>
      <trkpt lat="48.5547" lon="-4.53443">
        <ele>5</ele>
        <time>2024-02-11T23:21:13Z</time>
      </trkpt>
      <trkpt lat="48.55345" lon="-4.53545">
        <ele>2</ele>
        <time>2024-02-11T23:21:38Z</time>
      </trkpt>
      <trkpt lat="48.55305" lon="-4.53564">
        <ele>4</ele>
        <time>2024-02-11T23:21:46Z</time>
      </trkpt>
      <trkpt lat="48.55283" lon="-4.53582">
        <ele>5</ele>
        <time>2024-02-11T23:21:50Z</time>
      </trkpt>
      <trkpt lat="48.55264" lon="-4.53615">
        <ele>7</ele>
        <time>2024-02-11T23:21:55Z</time>
      </trkpt>
      <trkpt lat="48.5525" lon="-4.53657">
        <ele>10</ele>
        <time>2024-02-11T23:22:01Z</time>
      </trkpt>
      <trkpt lat="48.55248" lon="-4.53679">
        <ele>11</ele>
        <time>2024-02-11T23:22:03Z</time>
      </trkpt>
      <trkpt lat="48.55252" lon="-4.53751">
        <ele>17</ele>
        <time>2024-02-11T23:22:12Z</time>
      </trkpt>
      <trkpt lat="48.55251" lon="-4.53774">
        <ele>19</ele>
        <time>2024-02-11T23:22:15Z</time>
      </trkpt>
      <trkpt lat="48.55247" lon="-4.53795">
        <ele>20</ele>
        <time>2024-02-11T23:22:17Z</time>
      </trkpt>
      <trkpt lat="48.55241" lon="-4.5381">
        <ele>21</ele>
        <time>2024-02-11T23:22:19Z</time>
      </trkpt>
      <trkpt lat="48.55232" lon="-4.53819">
        <ele>22</ele>
        <time>2024-02-11T23:22:21Z</time>
      </trkpt>
      <trkpt lat="48.55217" lon="-4.53829">
        <ele>23</ele>
        <time>2024-02-11T23:22:24Z</time>
      </trkpt>
      <trkpt lat="48.55194" lon="-4.53837">
        <ele>24</ele>
        <time>2024-02-11T23:22:28Z</time>
      </trkpt>
      <trkpt lat="48.55187" lon="-4.53842">
        <ele>24</ele>
        <time>2024-02-11T23:22:30Z</time>
      </trkpt>
      <trkpt lat="48.55187" lon="-4.53873">
        <ele>25</ele>
        <time>2024-02-11T23:22:33Z</time>
      </trkpt>
      <trkpt lat="48.55187" lon="-4.53842">
        <ele>24</ele>
        <time>2024-02-11T23:22:37Z</time>
      </trkpt>
      <trkpt lat="48.55183" lon="-4.53839">
        <ele>24</ele>
        <time>2024-02-11T23:22:38Z</time>
      </trkpt>
      <trkpt lat="48.55161" lon="-4.53838">
        <ele>25</ele>
        <time>2024-02-11T23:22:42Z</time>
      </trkpt>
      <trkpt lat="48.55144" lon="-4.53844">
        <ele>26</ele>
        <time>2024-02-11T23:22:45Z</time>
      </trkpt>
      <trkpt lat="48.55093" lon="-4.53876">
        <ele>30</ele>
        <time>2024-02-11T23:22:55Z</time>
      </trkpt>
      <trkpt lat="48.55005" lon="-4.53942">
        <ele>35</ele>
        <time>2024-02-11T23:23:12Z</time>
      </trkpt>
      <trkpt lat="48.54957" lon="-4.53973">
        <ele>40</ele>
        <time>2024-02-11T23:23:21Z</time>
      </trkpt>
      <trkpt lat="48.54936" lon="-4.53992">
        <ele>43</ele>
        <time>2024-02-11T23:23:26Z</time>
      </trkpt>
      <trkpt lat="48.54907" lon="-4.54009">
        <ele>46</ele>
        <time>2024-02-11T23:23:31Z</time>
      </trkpt>
      <trkpt lat="48.54817" lon="-4.54076">
        <ele>52</ele>
        <time>2024-02-11T23:23:49Z</time>
      </trkpt>
      <trkpt lat="48.54553" lon="-4.54216">
        <ele>45</ele>
        <time>2024-02-11T23:24:39Z</time>
      </trkpt>
      <trkpt lat="48.5452" lon="-4.54229">
        <ele>45</ele>
        <time>2024-02-11T23:24:45Z</time>
      </trkpt>
      <trkpt lat="48.54501" lon="-4.54229">
        <ele>45</ele>
        <time>2024-02-11T23:24:48Z</time>
      </trkpt>
      <trkpt lat="48.54393" lon="-4.5421">
        <ele>44</ele>
        <time>2024-02-11T23:25:08Z</time>
      </trkpt>
      <trkpt lat="48.54369" lon="-4.5421">
        <ele>44</ele>
        <time>2024-02-11T23:25:12Z</time>
      </trkpt>
      <trkpt lat="48.54244" lon="-4.54221">
        <ele>43</ele>
        <time>2024-02-11T23:25:34Z</time>
      </trkpt>
      <trkpt lat="48.54224" lon="-4.54217">
        <ele>44</ele>
        <time>2024-02-11T23:25:38Z</time>
      </trkpt>
      <trkpt lat="48.54178" lon="-4.54197">
        <ele>45</ele>
        <time>2024-02-11T23:25:46Z</time>
      </trkpt>
      <trkpt lat="48.54133" lon="-4.54182">
        <ele>46</ele>
        <time>2024-02-11T23:25:55Z</time>
      </trkpt>
      <trkpt lat="48.54078" lon="-4.54153">
        <ele>46</ele>
        <time>2024-02-11T23:26:05Z</time>
      </trkpt>
      <trkpt lat="48.54058" lon="-4.54151">
        <ele>46</ele>
        <time>2024-02-11T23:26:09Z</time>
      </trkpt>
      <trkpt lat="48.54041" lon="-4.54153">
        <ele>46</ele>
        <time>2024-02-11T23:26:12Z</time>
      </trkpt>
      <trkpt lat="48.53991" lon="-4.54168">
        <ele>46</ele>
        <time>2024-02-11T23:26:21Z</time>
      </trkpt>
      <trkpt lat="48.53927" lon="-4.54181">
        <ele>43</ele>
        <time>2024-02-11T23:26:32Z</time>
      </trkpt>
      <trkpt lat="48.53867" lon="-4.54202">
        <ele>43</ele>
        <time>2024-02-11T23:26:43Z</time>
      </trkpt>
      <trkpt lat="48.53854" lon="-4.54204">
        <ele>43</ele>
        <time>2024-02-11T23:26:45Z</time>
      </trkpt>
      <trkpt lat="48.53842" lon="-4.54199">
        <ele>43</ele>
        <time>2024-02-11T23:26:48Z</time>
      </trkpt>
      <trkpt lat="48.5383" lon="-4.54185">
        <ele>43</ele>
        <time>2024-02-11T23:26:50Z</time>
      </trkpt>
      <trkpt lat="48.53799" lon="-4.5413">
        <ele>42</ele>
        <time>2024-02-11T23:26:59Z</time>
      </trkpt>
      <trkpt lat="48.53788" lon="-4.54116">
        <ele>42</ele>
        <time>2024-02-11T23:27:01Z</time>
      </trkpt>
      <trkpt lat="48.53775" lon="-4.5411">
        <ele>42</ele>
        <time>2024-02-11T23:27:04Z</time>
      </trkpt>
      <trkpt lat="48.53762" lon="-4.54108">
        <ele>43</ele>
        <time>2024-02-11T23:27:06Z</time>
      </trkpt>
      <trkpt lat="48.53747" lon="-4.54113">
        <ele>43</ele>
        <time>2024-02-11T23:27:09Z</time>
      </trkpt>
      <trkpt lat="48.53678" lon="-4.54151">
        <ele>43</ele>
        <time>2024-02-11T23:27:22Z</time>
      </trkpt>
      <trkpt lat="48.5365" lon="-4.54164">
        <ele>43</ele>
        <time>2024-02-11T23:27:27Z</time>
      </trkpt>
      <trkpt lat="48.53432" lon="-4.54244">
        <ele>46</ele>
        <time>2024-02-11T23:28:07Z</time>
      </trkpt>
      <trkpt lat="48.53418" lon="-4.54251">
        <ele>46</ele>
        <time>2024-02-11T23:28:10Z</time>
      </trkpt>
      <trkpt lat="48.53353" lon="-4.54302">
        <ele>50</ele>
        <time>2024-02-11T23:28:23Z</time>
      </trkpt>
      <trkpt lat="48.53328" lon="-4.54318">
        <ele>52</ele>
        <time>2024-02-11T23:28:28Z</time>
      </trkpt>
      <trkpt lat="48.53318" lon="-4.54321">
        <ele>52</ele>
        <time>2024-02-11T23:28:29Z</time>
      </trkpt>
      <trkpt lat="48.53303" lon="-4.54317">
        <ele>53</ele>
        <time>2024-02-11T23:28:32Z</time>
      </trkpt>
      <trkpt lat="48.53257" lon="-4.54273">
        <ele>54</ele>
        <time>2024-02-11T23:28:42Z</time>
      </trkpt>
      <trkpt lat="48.53163" lon="-4.54218">
        <ele>56</ele>
        <time>2024-02-11T23:29:00Z</time>
      </trkpt>
      <trkpt lat="48.53099" lon="-4.54175">
        <ele>58</ele>
        <time>2024-02-11T23:29:12Z</time>
      </trkpt>
      <trkpt lat="48.53071" lon="-4.54163">
        <ele>58</ele>
        <time>2024-02-11T23:29:17Z</time>
      </trkpt>
      <trkpt lat="48.52981" lon="-4.54141">
        <ele>61</ele>
        <time>2024-02-11T23:29:34Z</time>
      </trkpt>
      <trkpt lat="48.52877" lon="-4.54125">
        <ele>63</ele>
        <time>2024-02-11T23:29:52Z</time>
      </trkpt>
      <trkpt lat="48.52834" lon="-4.54099">
        <ele>63</ele>
        <time>2024-02-11T23:30:00Z</time>
      </trkpt>
      <trkpt lat="48.52815" lon="-4.54091">
        <ele>63</ele>
        <time>2024-02-11T23:30:04Z</time>
      </trkpt>
      <trkpt lat="48.52792" lon="-4.54091">
        <ele>63</ele>
        <time>2024-02-11T23:30:08Z</time>
      </trkpt>
      <trkpt lat="48.5272" lon="-4.54102">
        <ele>63</ele>
        <time>2024-02-11T23:30:21Z</time>
      </trkpt>
      <trkpt lat="48.52685" lon="-4.54103">
        <ele>62</ele>
        <time>2024-02-11T23:30:27Z</time>
      </trkpt>
      <trkpt lat="48.52481" lon="-4.54082">
        <ele>58</ele>
        <time>2024-02-11T23:31:04Z</time>
      </trkpt>
      <trkpt lat="48.52451" lon="-4.54073">
        <ele>57</ele>
        <time>2024-02-11T23:31:09Z</time>
      </trkpt>
      <trkpt lat="48.524" lon="-4.54051">
        <ele>56</ele>
        <time>2024-02-11T23:31:18Z</time>
      </trkpt>
      <trkpt lat="48.5231" lon="-4.54004">
        <ele>58</ele>
        <time>2024-02-11T23:31:35Z</time>
      </trkpt>
      <trkpt lat="48.52278" lon="-4.53992">
        <ele>57</ele>
        <time>2024-02-11T23:31:41Z</time>
      </trkpt>
      <trkpt lat="48.52245" lon="-4.53985">
        <ele>57</ele>
        <time>2024-02-11T23:31:47Z</time>
      </trkpt>
      <trkpt lat="48.52219" lon="-4.53985">
        <ele>55</ele>
        <time>2024-02-11T23:31:52Z</time>
      </trkpt>
      <trkpt lat="48.52193" lon="-4.53988">
        <ele>53</ele>
        <time>2024-02-11T23:31:56Z</time>
      </trkpt>
      <trkpt lat="48.52158" lon="-4.53997">
        <ele>51</ele>
        <time>2024-02-11T23:32:03Z</time>
      </trkpt>
      <trkpt lat="48.52138" lon="-4.54007">
        <ele>50</ele>
        <time>2024-02-11T23:32:06Z</time>
      </trkpt>
      <trkpt lat="48.52091" lon="-4.54041">
        <ele>49</ele>
        <time>2024-02-11T23:32:16Z</time>
      </trkpt>
      <trkpt lat="48.51743" lon="-4.54307">
        <ele>60</ele>
        <time>2024-02-11T23:33:25Z</time>
      </trkpt>
      <trkpt lat="48.51602" lon="-4.54427">
        <ele>62</ele>
        <time>2024-02-11T23:33:54Z</time>
      </trkpt>
      <trkpt lat="48.51525" lon="-4.5449">
        <ele>60</ele>
        <time>2024-02-11T23:34:10Z</time>
      </trkpt>
      <trkpt lat="48.51502" lon="-4.54506">
        <ele>59</ele>
        <time>2024-02-11T23:34:14Z</time>
      </trkpt>
      <trkpt lat="48.51427" lon="-4.54535">
        <ele>56</ele>
        <time>2024-02-11T23:34:28Z</time>
      </trkpt>
      <trkpt lat="48.51414" lon="-4.54537">
        <ele>55</ele>
        <time>2024-02-11T23:34:30Z</time>
      </trkpt>
      <trkpt lat="48.51366" lon="-4.54534">
        <ele>54</ele>
        <time>2024-02-11T23:34:39Z</time>
      </trkpt>
      <trkpt lat="48.51338" lon="-4.54536">
        <ele>53</ele>
        <time>2024-02-11T23:34:44Z</time>
      </trkpt>
      <trkpt lat="48.51254" lon="-4.54572">
        <ele>56</ele>
        <time>2024-02-11T23:34:59Z</time>
      </trkpt>
      <trkpt lat="48.51231" lon="-4.54575">
        <ele>56</ele>
        <time>2024-02-11T23:35:03Z</time>
      </trkpt>
      <trkpt lat="48.51217" lon="-4.54573">
        <ele>57</ele>
        <time>2024-02-11T23:35:06Z</time>
      </trkpt>
      <trkpt lat="48.51205" lon="-4.54568">
        <ele>57</ele>
        <time>2024-02-11T23:35:08Z</time>
      </trkpt>
      <trkpt lat="48.51194" lon="-4.54561">
        <ele>57</ele>
        <time>2024-02-11T23:35:10Z</time>
      </trkpt>
      <trkpt lat="48.51184" lon="-4.5455">
        <ele>57</ele>
        <time>2024-02-11T23:35:12Z</time>
      </trkpt>
      <trkpt lat="48.51113" lon="-4.54444">
        <ele>59</ele>
        <time>2024-02-11T23:35:30Z</time>
      </trkpt>
      <trkpt lat="48.51078" lon="-4.54354">
        <ele>59</ele>
        <time>2024-02-11T23:35:42Z</time>
      </trkpt>
      <trkpt lat="48.51009" lon="-4.54218">
        <ele>59</ele>
        <time>2024-02-11T23:36:03Z</time>
      </trkpt>
      <trkpt lat="48.50999" lon="-4.54206">
        <ele>59</ele>
        <time>2024-02-11T23:36:05Z</time>
      </trkpt>
      <trkpt lat="48.50945" lon="-4.54188">
        <ele>59</ele>
        <time>2024-02-11T23:36:15Z</time>
      </trkpt>
      <trkpt lat="48.50927" lon="-4.54187">
        <ele>59</ele>
        <time>2024-02-11T23:36:18Z</time>
      </trkpt>
      <trkpt lat="48.50892" lon="-4.54194">
        <ele>59</ele>
        <time>2024-02-11T23:36:24Z</time>
      </trkpt>
      <trkpt lat="48.50866" lon="-4.54205">
        <ele>60</ele>
        <time>2024-02-11T23:36:29Z</time>
      </trkpt>
      <trkpt lat="48.50859" lon="-4.54256">
        <ele>60</ele>
        <time>2024-02-11T23:36:35Z</time>
      </trkpt>
      <trkpt lat="48.50835" lon="-4.54286">
        <ele>61</ele>
        <time>2024-02-11T23:36:41Z</time>
      </trkpt>
      <trkpt lat="48.50773" lon="-4.54344">
        <ele>62</ele>
        <time>2024-02-11T23:36:54Z</time>
      </trkpt>
      <trkpt lat="48.5072" lon="-4.54382">
        <ele>63</ele>
        <time>2024-02-11T23:37:04Z</time>
      </trkpt>
      <trkpt lat="48.50673" lon="-4.54442">
        <ele>63</ele>
        <time>2024-02-11T23:37:15Z</time>
      </trkpt>
      <trkpt lat="48.50651" lon="-4.54465">
        <ele>63</ele>
        <time>2024-02-11T23:37:20Z</time>
      </trkpt>
      <trkpt lat="48.50599" lon="-4.54578">
        <ele>63</ele>
        <time>2024-02-11T23:37:36Z</time>
      </trkpt>
      <trkpt lat="48.50576" lon="-4.5462">
        <ele>63</ele>
        <time>2024-02-11T23:37:43Z</time>
      </trkpt>
      <trkpt lat="48.50555" lon="-4.54651">
        <ele>63</ele>
        <time>2024-02-11T23:37:48Z</time>
      </trkpt>
      <trkpt lat="48.50536" lon="-4.54698">
        <ele>63</ele>
        <time>2024-02-11T23:37:54Z</time>
      </trkpt>
      <trkpt lat="48.50511" lon="-4.54703">
        <ele>64</ele>
        <time>2024-02-11T23:37:59Z</time>
      </trkpt>
      <trkpt lat="48.50496" lon="-4.54711">
        <ele>65</ele>
        <time>2024-02-11T23:38:02Z</time>
      </trkpt>
      <trkpt lat="48.50483" lon="-4.54737">
        <ele>64</ele>
        <time>2024-02-11T23:38:05Z</time>
      </trkpt>
      <trkpt lat="48.50356" lon="-4.55119">
        <ele>65</ele>
        <time>2024-02-11T23:38:56Z</time>
      </trkpt>
      <trkpt lat="48.50345" lon="-4.55159">
        <ele>65</ele>
        <time>2024-02-11T23:39:01Z</time>
      </trkpt>
      <trkpt lat="48.50294" lon="-4.55408">
        <ele>60</ele>
        <time>2024-02-11T23:39:32Z</time>
      </trkpt>
      <trkpt lat="48.50279" lon="-4.55436">
        <ele>58</ele>
        <time>2024-02-11T23:39:36Z</time>
      </trkpt>
      <trkpt lat="48.50263" lon="-4.55448">
        <ele>57</ele>
        <time>2024-02-11T23:39:39Z</time>
      </trkpt>
      <trkpt lat="48.50249" lon="-4.55453">
        <ele>57</ele>
        <time>2024-02-11T23:39:42Z</time>
      </trkpt>
      <trkpt lat="48.50235" lon="-4.55451">
        <ele>55</ele>
        <time>2024-02-11T23:39:44Z</time>
      </trkpt>
      <trkpt lat="48.50206" lon="-4.55426">
        <ele>53</ele>
        <time>2024-02-11T23:39:50Z</time>
      </trkpt>
      <trkpt lat="48.50153" lon="-4.5537">
        <ele>51</ele>
        <time>2024-02-11T23:40:02Z</time>
      </trkpt>
      <trkpt lat="48.50117" lon="-4.55337">
        <ele>51</ele>
        <time>2024-02-11T23:40:09Z</time>
      </trkpt>
      <trkpt lat="48.50091" lon="-4.55328">
        <ele>51</ele>
        <time>2024-02-11T23:40:14Z</time>
      </trkpt>
      <trkpt lat="48.50075" lon="-4.5533">
        <ele>51</ele>
        <time>2024-02-11T23:40:17Z</time>
      </trkpt>
      <trkpt lat="48.50056" lon="-4.55345">
        <ele>52</ele>
        <time>2024-02-11T23:40:20Z</time>
      </trkpt>
      <trkpt lat="48.50046" lon="-4.55361">
        <ele>52</ele>
        <time>2024-02-11T23:40:23Z</time>
      </trkpt>
      <trkpt lat="48.5004" lon="-4.55397">
        <ele>52</ele>
        <time>2024-02-11T23:40:27Z</time>
      </trkpt>
      <trkpt lat="48.50038" lon="-4.55438">
        <ele>50</ele>
        <time>2024-02-11T23:40:32Z</time>
      </trkpt>
      <trkpt lat="48.50032" lon="-4.55454">
        <ele>50</ele>
        <time>2024-02-11T23:40:34Z</time>
      </trkpt>
      <trkpt lat="48.49998" lon="-4.5549">
        <ele>52</ele>
        <time>2024-02-11T23:40:42Z</time>
      </trkpt>
      <trkpt lat="48.49975" lon="-4.5551">
        <ele>53</ele>
        <time>2024-02-11T23:40:47Z</time>
      </trkpt>
      <trkpt lat="48.49921" lon="-4.55548">
        <ele>53</ele>
        <time>2024-02-11T23:40:57Z</time>
      </trkpt>
      <trkpt lat="48.49865" lon="-4.55574">
        <ele>52</ele>
        <time>2024-02-11T23:41:08Z</time>
      </trkpt>
      <trkpt lat="48.49799" lon="-4.55618">
        <ele>57</ele>
        <time>2024-02-11T23:41:20Z</time>
      </trkpt>
      <trkpt lat="48.49716" lon="-4.55692">
        <ele>61</ele>
        <time>2024-02-11T23:41:38Z</time>
      </trkpt>
      <trkpt lat="48.49692" lon="-4.55708">
        <ele>63</ele>
        <time>2024-02-11T23:41:42Z</time>
      </trkpt>
      <trkpt lat="48.49672" lon="-4.55716">
        <ele>65</ele>
        <time>2024-02-11T23:41:46Z</time>
      </trkpt>
      <trkpt lat="48.4966" lon="-4.55717">
        <ele>65</ele>
        <time>2024-02-11T23:41:48Z</time>
      </trkpt>
      <trkpt lat="48.49647" lon="-4.55713">
        <ele>65</ele>
        <time>2024-02-11T23:41:50Z</time>
      </trkpt>
      <trkpt lat="48.4963" lon="-4.55699">
        <ele>64</ele>
        <time>2024-02-11T23:41:54Z</time>
      </trkpt>
      <trkpt lat="48.49596" lon="-4.55677">
        <ele>65</ele>
        <time>2024-02-11T23:42:00Z</time>
      </trkpt>
      <trkpt lat="48.49587" lon="-4.55677">
        <ele>66</ele>
        <time>2024-02-11T23:42:02Z</time>
      </trkpt>
      <trkpt lat="48.4957" lon="-4.55683">
        <ele>67</ele>
        <time>2024-02-11T23:42:05Z</time>
      </trkpt>
      <trkpt lat="48.49532" lon="-4.55709">
        <ele>68</ele>
        <time>2024-02-11T23:42:13Z</time>
      </trkpt>
      <trkpt lat="48.49525" lon="-4.55722">
        <ele>68</ele>
        <time>2024-02-11T23:42:15Z</time>
      </trkpt>
      <trkpt lat="48.49517" lon="-4.5576">
        <ele>69</ele>
        <time>2024-02-11T23:42:19Z</time>
      </trkpt>
      <trkpt lat="48.49508" lon="-4.55879">
        <ele>74</ele>
        <time>2024-02-11T23:42:33Z</time>
      </trkpt>
      <trkpt lat="48.49465" lon="-4.56283">
        <ele>75</ele>
        <time>2024-02-11T23:43:22Z</time>
      </trkpt>
      <trkpt lat="48.49457" lon="-4.56305">
        <ele>75</ele>
        <time>2024-02-11T23:43:25Z</time>
      </trkpt>
      <trkpt lat="48.49446" lon="-4.56324">
        <ele>76</ele>
        <time>2024-02-11T23:43:28Z</time>
      </trkpt>
      <trkpt lat="48.49261" lon="-4.56542">
        <ele>75</ele>
        <time>2024-02-11T23:44:09Z</time>
      </trkpt>
      <trkpt lat="48.49233" lon="-4.56567">
        <ele>74</ele>
        <time>2024-02-11T23:44:15Z</time>
      </trkpt>
      <trkpt lat="48.49215" lon="-4.56577">
        <ele>73</ele>
        <time>2024-02-11T23:44:19Z</time>
      </trkpt>
      <trkpt lat="48.49196" lon="-4.56583">
        <ele>73</ele>
        <time>2024-02-11T23:44:22Z</time>
      </trkpt>
      <trkpt lat="48.4912" lon="-4.56591">
        <ele>72</ele>
        <time>2024-02-11T23:44:36Z</time>
      </trkpt>
      <trkpt lat="48.49106" lon="-4.56598">
        <ele>71</ele>
        <time>2024-02-11T23:44:38Z</time>
      </trkpt>
      <trkpt lat="48.48937" lon="-4.56745">
        <ele>73</ele>
        <time>2024-02-11T23:45:13Z</time>
      </trkpt>
      <trkpt lat="48.48914" lon="-4.56753">
        <ele>74</ele>
        <time>2024-02-11T23:45:17Z</time>
      </trkpt>
      <trkpt lat="48.48894" lon="-4.56751">
        <ele>74</ele>
        <time>2024-02-11T23:45:21Z</time>
      </trkpt>
      <trkpt lat="48.48757" lon="-4.5672">
        <ele>75</ele>
        <time>2024-02-11T23:45:45Z</time>
      </trkpt>
      <trkpt lat="48.48749" lon="-4.56723">
        <ele>75</ele>
        <time>2024-02-11T23:45:47Z</time>
      </trkpt>
      <trkpt lat="48.48745" lon="-4.56728">
        <ele>75</ele>
        <time>2024-02-11T23:45:48Z</time>
      </trkpt>
      <trkpt lat="48.48735" lon="-4.56717">
        <ele>75</ele>
        <time>2024-02-11T23:45:50Z</time>
      </trkpt>
      <trkpt lat="48.4867" lon="-4.56687">
        <ele>77</ele>
        <time>2024-02-11T23:46:02Z</time>
      </trkpt>
      <trkpt lat="48.48618" lon="-4.56658">
        <ele>78</ele>
        <time>2024-02-11T23:46:12Z</time>
      </trkpt>
      <trkpt lat="48.4859" lon="-4.56637">
        <ele>78</ele>
        <time>2024-02-11T23:46:17Z</time>
      </trkpt>
      <trkpt lat="48.48543" lon="-4.56589">
        <ele>79</ele>
        <time>2024-02-11T23:46:27Z</time>
      </trkpt>
      <trkpt lat="48.48506" lon="-4.5656">
        <ele>80</ele>
        <time>2024-02-11T23:46:35Z</time>
      </trkpt>
      <trkpt lat="48.4847" lon="-4.56539">
        <ele>81</ele>
        <time>2024-02-11T23:46:42Z</time>
      </trkpt>
      <trkpt lat="48.48444" lon="-4.56529">
        <ele>81</ele>
        <time>2024-02-11T23:46:47Z</time>
      </trkpt>
      <trkpt lat="48.48396" lon="-4.56519">
        <ele>82</ele>
        <time>2024-02-11T23:46:55Z</time>
      </trkpt>
      <trkpt lat="48.4827" lon="-4.5652">
        <ele>81</ele>
        <time>2024-02-11T23:47:18Z</time>
      </trkpt>
      <trkpt lat="48.48203" lon="-4.56524">
        <ele>79</ele>
        <time>2024-02-11T23:47:30Z</time>
      </trkpt>
      <trkpt lat="48.4809" lon="-4.56526">
        <ele>77</ele>
        <time>2024-02-11T23:47:50Z</time>
      </trkpt>
      <trkpt lat="48.4801" lon="-4.56531">
        <ele>77</ele>
        <time>2024-02-11T23:48:04Z</time>
      </trkpt>
      <trkpt lat="48.47965" lon="-4.56542">
        <ele>78</ele>
        <time>2024-02-11T23:48:12Z</time>
      </trkpt>
      <trkpt lat="48.47928" lon="-4.56556">
        <ele>79</ele>
        <time>2024-02-11T23:48:19Z</time>
      </trkpt>
      <trkpt lat="48.47888" lon="-4.56575">
        <ele>80</ele>
        <time>2024-02-11T23:48:26Z</time>
      </trkpt>
      <trkpt lat="48.47796" lon="-4.56625">
        <ele>83</ele>
        <time>2024-02-11T23:48:44Z</time>
      </trkpt>
      <trkpt lat="48.47762" lon="-4.56647">
        <ele>83</ele>
        <time>2024-02-11T23:48:50Z</time>
      </trkpt>
      <trkpt lat="48.47708" lon="-4.56673">
        <ele>85</ele>
        <time>2024-02-11T23:49:00Z</time>
      </trkpt>
      <trkpt lat="48.47661" lon="-4.56688">
        <ele>87</ele>
        <time>2024-02-11T23:49:09Z</time>
      </trkpt>
      <trkpt lat="48.47622" lon="-4.56692">
        <ele>87</ele>
        <time>2024-02-11T23:49:16Z</time>
      </trkpt>
      <trkpt lat="48.47531" lon="-4.56691">
        <ele>86</ele>
        <time>2024-02-11T23:49:32Z</time>
      </trkpt>
      <trkpt lat="48.47512" lon="-4.56695">
        <ele>85</ele>
        <time>2024-02-11T23:49:35Z</time>
      </trkpt>
      <trkpt lat="48.47475" lon="-4.56714">
        <ele>84</ele>
        <time>2024-02-11T23:49:42Z</time>
      </trkpt>
      <trkpt lat="48.47408" lon="-4.56762">
        <ele>83</ele>
        <time>2024-02-11T23:49:56Z</time>
      </trkpt>
      <trkpt lat="48.47339" lon="-4.56816">
        <ele>83</ele>
        <time>2024-02-11T23:50:09Z</time>
      </trkpt>
      <trkpt lat="48.47287" lon="-4.56841">
        <ele>85</ele>
        <time>2024-02-11T23:50:19Z</time>
      </trkpt>
      <trkpt lat="48.47261" lon="-4.56848">
        <ele>85</ele>
        <time>2024-02-11T23:50:24Z</time>
      </trkpt>
      <trkpt lat="48.47239" lon="-4.56847">
        <ele>85</ele>
        <time>2024-02-11T23:50:28Z</time>
      </trkpt>
      <trkpt lat="48.47204" lon="-4.56835">
        <ele>83</ele>
        <time>2024-02-11T23:50:34Z</time>
      </trkpt>
      <trkpt lat="48.47163" lon="-4.56816">
        <ele>81</ele>
        <time>2024-02-11T23:50:42Z</time>
      </trkpt>
      <trkpt lat="48.47114" lon="-4.56797">
        <ele>80</ele>
        <time>2024-02-11T23:50:51Z</time>
      </trkpt>
      <trkpt lat="48.47089" lon="-4.56797">
        <ele>80</ele>
        <time>2024-02-11T23:50:55Z</time>
      </trkpt>
      <trkpt lat="48.47009" lon="-4.56839">
        <ele>82</ele>
        <time>2024-02-11T23:51:10Z</time>
      </trkpt>
      <trkpt lat="48.46972" lon="-4.56843">
        <ele>82</ele>
        <time>2024-02-11T23:51:17Z</time>
      </trkpt>
      <trkpt lat="48.46961" lon="-4.56842">
        <ele>82</ele>
        <time>2024-02-11T23:51:19Z</time>
      </trkpt>
      <trkpt lat="48.4696" lon="-4.56846">
        <ele>82</ele>
        <time>2024-02-11T23:51:19Z</time>
      </trkpt>
      <trkpt lat="48.46956" lon="-4.56848">
        <ele>82</ele>
        <time>2024-02-11T23:51:20Z</time>
      </trkpt>
      <trkpt lat="48.46952" lon="-4.5684">
        <ele>82</ele>
        <time>2024-02-11T23:51:21Z</time>
      </trkpt>
      <trkpt lat="48.46926" lon="-4.56832">
        <ele>83</ele>
        <time>2024-02-11T23:51:26Z</time>
      </trkpt>
      <trkpt lat="48.46847" lon="-4.56771">
        <ele>83</ele>
        <time>2024-02-11T23:51:42Z</time>
      </trkpt>
      <trkpt lat="48.46822" lon="-4.56762">
        <ele>83</ele>
        <time>2024-02-11T23:51:46Z</time>
      </trkpt>
      <trkpt lat="48.46723" lon="-4.56743">
        <ele>86</ele>
        <time>2024-02-11T23:52:04Z</time>
      </trkpt>
      <trkpt lat="48.46711" lon="-4.56737">
        <ele>86</ele>
        <time>2024-02-11T23:52:06Z</time>
      </trkpt>
      <trkpt lat="48.4671" lon="-4.56742">
        <ele>86</ele>
        <time>2024-02-11T23:52:07Z</time>
      </trkpt>
      <trkpt lat="48.46706" lon="-4.56738">
        <ele>87</ele>
        <time>2024-02-11T23:52:08Z</time>
      </trkpt>
      <trkpt lat="48.46702" lon="-4.56754">
        <ele>87</ele>
        <time>2024-02-11T23:52:10Z</time>
      </trkpt>
      <trkpt lat="48.46703" lon="-4.56809">
        <ele>86</ele>
        <time>2024-02-11T23:52:16Z</time>
      </trkpt>
      <trkpt lat="48.467" lon="-4.56864">
        <ele>86</ele>
        <time>2024-02-11T23:52:23Z</time>
      </trkpt>
      <trkpt lat="48.46695" lon="-4.56884">
        <ele>86</ele>
        <time>2024-02-11T23:52:25Z</time>
      </trkpt>
      <trkpt lat="48.46696" lon="-4.56946">
        <ele>85</ele>
        <time>2024-02-11T23:52:33Z</time>
      </trkpt>
      <trkpt lat="48.46693" lon="-4.5699">
        <ele>85</ele>
        <time>2024-02-11T23:52:38Z</time>
      </trkpt>
      <trkpt lat="48.46677" lon="-4.57054">
        <ele>85</ele>
        <time>2024-02-11T23:52:46Z</time>
      </trkpt>
      <trkpt lat="48.46631" lon="-4.57167">
        <ele>85</ele>
        <time>2024-02-11T23:53:02Z</time>
      </trkpt>
      <trkpt lat="48.4661" lon="-4.57231">
        <ele>86</ele>
        <time>2024-02-11T23:53:10Z</time>
      </trkpt>
      <trkpt lat="48.46473" lon="-4.57209">
        <ele>90</ele>
        <time>2024-02-11T23:53:35Z</time>
      </trkpt>
      <trkpt lat="48.46416" lon="-4.57292">
        <ele>90</ele>
        <time>2024-02-11T23:53:49Z</time>
      </trkpt>
      <trkpt lat="48.46395" lon="-4.57332">
        <ele>89</ele>
        <time>2024-02-11T23:53:55Z</time>
      </trkpt>
      <trkpt lat="48.46259" lon="-4.5765">
        <ele>90</ele>
        <time>2024-02-11T23:54:39Z</time>
      </trkpt>
      <trkpt lat="48.4618" lon="-4.57846">
        <ele>88</ele>
        <time>2024-02-11T23:55:06Z</time>
      </trkpt>
      <trkpt lat="48.46127" lon="-4.57954">
        <ele>89</ele>
        <time>2024-02-11T23:55:22Z</time>
      </trkpt>
      <trkpt lat="48.46036" lon="-4.58083">
        <ele>92</ele>
        <time>2024-02-11T23:55:44Z</time>
      </trkpt>
      <trkpt lat="48.46011" lon="-4.58106">
        <ele>92</ele>
        <time>2024-02-11T23:55:50Z</time>
      </trkpt>
      <trkpt lat="48.45961" lon="-4.58126">
        <ele>92</ele>
        <time>2024-02-11T23:55:59Z</time>
      </trkpt>
      <trkpt lat="48.45876" lon="-4.58175">
        <ele>94</ele>
        <time>2024-02-11T23:56:15Z</time>
      </trkpt>
      <trkpt lat="48.45865" lon="-4.58186">
        <ele>94</ele>
        <time>2024-02-11T23:56:17Z</time>
      </trkpt>
      <trkpt lat="48.45853" lon="-4.58205">
        <ele>94</ele>
        <time>2024-02-11T23:56:21Z</time>
      </trkpt>
      <trkpt lat="48.45799" lon="-4.5832">
        <ele>95</ele>
        <time>2024-02-11T23:56:37Z</time>
      </trkpt>
      <trkpt lat="48.45781" lon="-4.58367">
        <ele>94</ele>
        <time>2024-02-11T23:56:44Z</time>
      </trkpt>
      <trkpt lat="48.45771" lon="-4.58384">
        <ele>94</ele>
        <time>2024-02-11T23:56:46Z</time>
      </trkpt>
      <trkpt lat="48.45686" lon="-4.58482">
        <ele>90</ele>
        <time>2024-02-11T23:57:05Z</time>
      </trkpt>
      <trkpt lat="48.45613" lon="-4.58538">
        <ele>90</ele>
        <time>2024-02-11T23:57:20Z</time>
      </trkpt>
      <trkpt lat="48.45587" lon="-4.58561">
        <ele>91</ele>
        <time>2024-02-11T23:57:25Z</time>
      </trkpt>
      <trkpt lat="48.45552" lon="-4.5862">
        <ele>91</ele>
        <time>2024-02-11T23:57:35Z</time>
      </trkpt>
      <trkpt lat="48.45439" lon="-4.58873">
        <ele>90</ele>
        <time>2024-02-11T23:58:11Z</time>
      </trkpt>
      <trkpt lat="48.45398" lon="-4.58954">
        <ele>90</ele>
        <time>2024-02-11T23:58:23Z</time>
      </trkpt>
      <trkpt lat="48.45329" lon="-4.59077">
        <ele>91</ele>
        <time>2024-02-11T23:58:42Z</time>
      </trkpt>
      <trkpt lat="48.45303" lon="-4.59149">
        <ele>93</ele>
        <time>2024-02-11T23:58:51Z</time>
      </trkpt>
      <trkpt lat="48.45284" lon="-4.59234">
        <ele>94</ele>
        <time>2024-02-11T23:59:02Z</time>
      </trkpt>
      <trkpt lat="48.45223" lon="-4.59425">
        <ele>93</ele>
        <time>2024-02-11T23:59:27Z</time>
      </trkpt>
      <trkpt lat="48.45179" lon="-4.59597">
        <ele>93</ele>
        <time>2024-02-11T23:59:49Z</time>
      </trkpt>
      <trkpt lat="48.45167" lon="-4.59652">
        <ele>92</ele>
        <time>2024-02-11T23:59:55Z</time>
      </trkpt>
      <trkpt lat="48.45139" lon="-4.59891">
        <ele>87</ele>
        <time>2024-02-12T00:00:24Z</time>
      </trkpt>
      <trkpt lat="48.45121" lon="-4.59982">
        <ele>84</ele>
        <time>2024-02-12T00:00:35Z</time>
      </trkpt>
      <trkpt lat="48.45106" lon="-4.60021">
        <ele>83</ele>
        <time>2024-02-12T00:00:41Z</time>
      </trkpt>
      <trkpt lat="48.45051" lon="-4.60122">
        <ele>79</ele>
        <time>2024-02-12T00:00:56Z</time>
      </trkpt>
      <trkpt lat="48.45023" lon="-4.60204">
        <ele>77</ele>
        <time>2024-02-12T00:01:07Z</time>
      </trkpt>
      <trkpt lat="48.44997" lon="-4.60253">
        <ele>75</ele>
        <time>2024-02-12T00:01:14Z</time>
      </trkpt>
      <trkpt lat="48.44941" lon="-4.60308">
        <ele>74</ele>
        <time>2024-02-12T00:01:26Z</time>
      </trkpt>
      <trkpt lat="48.44924" lon="-4.6033">
        <ele>73</ele>
        <time>2024-02-12T00:01:30Z</time>
      </trkpt>
      <trkpt lat="48.44914" lon="-4.60352">
        <ele>72</ele>
        <time>2024-02-12T00:01:33Z</time>
      </trkpt>
      <trkpt lat="48.449" lon="-4.60402">
        <ele>68</ele>
        <time>2024-02-12T00:01:40Z</time>
      </trkpt>
      <trkpt lat="48.44889" lon="-4.60502">
        <ele>63</ele>
        <time>2024-02-12T00:01:52Z</time>
      </trkpt>
      <trkpt lat="48.44877" lon="-4.60543">
        <ele>60</ele>
        <time>2024-02-12T00:01:57Z</time>
      </trkpt>
      <trkpt lat="48.44869" lon="-4.60559">
        <ele>59</ele>
        <time>2024-02-12T00:01:59Z</time>
      </trkpt>
      <trkpt lat="48.44855" lon="-4.60577">
        <ele>57</ele>
        <time>2024-02-12T00:02:03Z</time>
      </trkpt>
      <trkpt lat="48.44835" lon="-4.60594">
        <ele>56</ele>
        <time>2024-02-12T00:02:07Z</time>
      </trkpt>
      <trkpt lat="48.44762" lon="-4.60643">
        <ele>52</ele>
        <time>2024-02-12T00:02:21Z</time>
      </trkpt>
      <trkpt lat="48.4474" lon="-4.60662">
        <ele>51</ele>
        <time>2024-02-12T00:02:25Z</time>
      </trkpt>
      <trkpt lat="48.44688" lon="-4.60717">
        <ele>52</ele>
        <time>2024-02-12T00:02:37Z</time>
      </trkpt>
      <trkpt lat="48.44635" lon="-4.60756">
        <ele>51</ele>
        <time>2024-02-12T00:02:47Z</time>
      </trkpt>
      <trkpt lat="48.4459" lon="-4.60783">
        <ele>54</ele>
        <time>2024-02-12T00:02:56Z</time>
      </trkpt>
      <trkpt lat="48.44538" lon="-4.60822">
        <ele>56</ele>
        <time>2024-02-12T00:03:06Z</time>
      </trkpt>
      <trkpt lat="48.4449" lon="-4.60848">
        <ele>56</ele>
        <time>2024-02-12T00:03:15Z</time>
      </trkpt>
      <trkpt lat="48.44461" lon="-4.60856">
        <ele>56</ele>
        <time>2024-02-12T00:03:21Z</time>
      </trkpt>
      <trkpt lat="48.44441" lon="-4.60865">
        <ele>56</ele>
        <time>2024-02-12T00:03:24Z</time>
      </trkpt>
      <trkpt lat="48.44374" lon="-4.60905">
        <ele>56</ele>
        <time>2024-02-12T00:03:37Z</time>
      </trkpt>
      <trkpt lat="48.44356" lon="-4.60913">
        <ele>56</ele>
        <time>2024-02-12T00:03:40Z</time>
      </trkpt>
      <trkpt lat="48.44308" lon="-4.60923">
        <ele>54</ele>
        <time>2024-02-12T00:03:49Z</time>
      </trkpt>
      <trkpt lat="48.44246" lon="-4.60941">
        <ele>54</ele>
        <time>2024-02-12T00:04:00Z</time>
      </trkpt>
      <trkpt lat="48.44184" lon="-4.60941">
        <ele>55</ele>
        <time>2024-02-12T00:04:11Z</time>
      </trkpt>
      <trkpt lat="48.44151" lon="-4.60937">
        <ele>56</ele>
        <time>2024-02-12T00:04:17Z</time>
      </trkpt>
      <trkpt lat="48.44044" lon="-4.60912">
        <ele>56</ele>
        <time>2024-02-12T00:04:36Z</time>
      </trkpt>
      <trkpt lat="48.44005" lon="-4.60906">
        <ele>55</ele>
        <time>2024-02-12T00:04:43Z</time>
      </trkpt>
      <trkpt lat="48.43933" lon="-4.6092">
        <ele>52</ele>
        <time>2024-02-12T00:04:56Z</time>
      </trkpt>
      <trkpt lat="48.43817" lon="-4.60972">
        <ele>56</ele>
        <time>2024-02-12T00:05:18Z</time>
      </trkpt>
      <trkpt lat="48.43799" lon="-4.60973">
        <ele>55</ele>
        <time>2024-02-12T00:05:21Z</time>
      </trkpt>
      <trkpt lat="48.43697" lon="-4.60965">
        <ele>52</ele>
        <time>2024-02-12T00:05:39Z</time>
      </trkpt>
      <trkpt lat="48.43661" lon="-4.6097">
        <ele>52</ele>
        <time>2024-02-12T00:05:46Z</time>
      </trkpt>
      <trkpt lat="48.43605" lon="-4.60989">
        <ele>51</ele>
        <time>2024-02-12T00:05:56Z</time>
      </trkpt>
      <trkpt lat="48.43555" lon="-4.6101">
        <ele>47</ele>
        <time>2024-02-12T00:06:05Z</time>
      </trkpt>
      <trkpt lat="48.43544" lon="-4.6102">
        <ele>47</ele>
        <time>2024-02-12T00:06:07Z</time>
      </trkpt>
      <trkpt lat="48.43509" lon="-4.61064">
        <ele>46</ele>
        <time>2024-02-12T00:06:16Z</time>
      </trkpt>
      <trkpt lat="48.435" lon="-4.6107">
        <ele>46</ele>
        <time>2024-02-12T00:06:17Z</time>
      </trkpt>
      <trkpt lat="48.4341" lon="-4.61101">
        <ele>39</ele>
        <time>2024-02-12T00:06:34Z</time>
      </trkpt>
      <trkpt lat="48.43378" lon="-4.61127">
        <ele>38</ele>
        <time>2024-02-12T00:06:40Z</time>
      </trkpt>
      <trkpt lat="48.43342" lon="-4.61162">
        <ele>37</ele>
        <time>2024-02-12T00:06:48Z</time>
      </trkpt>
      <trkpt lat="48.43327" lon="-4.61184">
        <ele>37</ele>
        <time>2024-02-12T00:06:51Z</time>
      </trkpt>
      <trkpt lat="48.43319" lon="-4.61202">
        <ele>37</ele>
        <time>2024-02-12T00:06:54Z</time>
      </trkpt>
      <trkpt lat="48.4331" lon="-4.61261">
        <ele>37</ele>
        <time>2024-02-12T00:07:01Z</time>
      </trkpt>
      <trkpt lat="48.43324" lon="-4.61396">
        <ele>38</ele>
        <time>2024-02-12T00:07:17Z</time>
      </trkpt>
      <trkpt lat="48.43321" lon="-4.61412">
        <ele>38</ele>
        <time>2024-02-12T00:07:19Z</time>
      </trkpt>
      <trkpt lat="48.43313" lon="-4.61424">
        <ele>37</ele>
        <time>2024-02-12T00:07:21Z</time>
      </trkpt>
      <trkpt lat="48.43309" lon="-4.61426">
        <ele>37</ele>
        <time>2024-02-12T00:07:22Z</time>
      </trkpt>
      <trkpt lat="48.43369" lon="-4.61635">
        <ele>37</ele>
        <time>2024-02-12T00:07:49Z</time>
      </trkpt>
      <trkpt lat="48.4338" lon="-4.61666">
        <ele>38</ele>
        <time>2024-02-12T00:07:53Z</time>
      </trkpt>
      <trkpt lat="48.43399" lon="-4.61708">
        <ele>38</ele>
        <time>2024-02-12T00:07:59Z</time>
      </trkpt>
      <trkpt lat="48.43419" lon="-4.61743">
        <ele>38</ele>
        <time>2024-02-12T00:08:05Z</time>
      </trkpt>
      <trkpt lat="48.43448" lon="-4.61785">
        <ele>37</ele>
        <time>2024-02-12T00:08:12Z</time>
      </trkpt>
      <trkpt lat="48.43501" lon="-4.61839">
        <ele>36</ele>
        <time>2024-02-12T00:08:23Z</time>
      </trkpt>
      <trkpt lat="48.43528" lon="-4.61861">
        <ele>36</ele>
        <time>2024-02-12T00:08:29Z</time>
      </trkpt>
      <trkpt lat="48.4353" lon="-4.61855">
        <ele>36</ele>
        <time>2024-02-12T00:08:29Z</time>
      </trkpt>
      <trkpt lat="48.43534" lon="-4.61852">
        <ele>37</ele>
        <time>2024-02-12T00:08:30Z</time>
      </trkpt>
      <trkpt lat="48.43539" lon="-4.61852">
        <ele>37</ele>
        <time>2024-02-12T00:08:31Z</time>
      </trkpt>
      <trkpt lat="48.43543" lon="-4.61855">
        <ele>37</ele>
        <time>2024-02-12T00:08:32Z</time>
      </trkpt>
      <trkpt lat="48.43546" lon="-4.61863">
        <ele>37</ele>
        <time>2024-02-12T00:08:33Z</time>
      </trkpt>
      <trkpt lat="48.43545" lon="-4.61871">
        <ele>36</ele>
        <time>2024-02-12T00:08:34Z</time>
      </trkpt>
      <trkpt lat="48.43541" lon="-4.61878">
        <ele>36</ele>
        <time>2024-02-12T00:08:35Z</time>
      </trkpt>
      <trkpt lat="48.43534" lon="-4.61879">
        <ele>36</ele>
        <time>2024-02-12T00:08:36Z</time>
      </trkpt>
      <trkpt lat="48.43524" lon="-4.61958">
        <ele>34</ele>
        <time>2024-02-12T00:08:46Z</time>
      </trkpt>
      <trkpt lat="48.43515" lon="-4.62004">
        <ele>33</ele>
        <time>2024-02-12T00:08:51Z</time>
      </trkpt>
      <trkpt lat="48.43486" lon="-4.62118">
        <ele>35</ele>
        <time>2024-02-12T00:09:06Z</time>
      </trkpt>
      <trkpt lat="48.43477" lon="-4.62162">
        <ele>35</ele>
        <time>2024-02-12T00:09:11Z</time>
      </trkpt>
      <trkpt lat="48.4348" lon="-4.62166">
        <ele>35</ele>
        <time>2024-02-12T00:09:12Z</time>
      </trkpt>
      <trkpt lat="48.4348" lon="-4.62171">
        <ele>35</ele>
        <time>2024-02-12T00:09:13Z</time>
      </trkpt>
      <trkpt lat="48.43478" lon="-4.62175">
        <ele>35</ele>
        <time>2024-02-12T00:09:13Z</time>
      </trkpt>
      <trkpt lat="48.43474" lon="-4.62176">
        <ele>35</ele>
        <time>2024-02-12T00:09:14Z</time>
      </trkpt>
      <trkpt lat="48.4346" lon="-4.62228">
        <ele>36</ele>
        <time>2024-02-12T00:09:20Z</time>
      </trkpt>
      <trkpt lat="48.43454" lon="-4.6224">
        <ele>37</ele>
        <time>2024-02-12T00:09:22Z</time>
      </trkpt>
      <trkpt lat="48.43432" lon="-4.62251">
        <ele>38</ele>
        <time>2024-02-12T00:09:26Z</time>
      </trkpt>
      <trkpt lat="48.43395" lon="-4.62283">
        <ele>40</ele>
        <time>2024-02-12T00:09:34Z</time>
      </trkpt>
      <trkpt lat="48.43373" lon="-4.6229">
        <ele>41</ele>
        <time>2024-02-12T00:09:38Z</time>
      </trkpt>
      <trkpt lat="48.43311" lon="-4.62295">
        <ele>46</ele>
        <time>2024-02-12T00:09:49Z</time>
      </trkpt>
      <trkpt lat="48.43302" lon="-4.62292">
        <ele>46</ele>
        <time>2024-02-12T00:09:51Z</time>
      </trkpt>
      <trkpt lat="48.4328" lon="-4.62271">
        <ele>47</ele>
        <time>2024-02-12T00:09:55Z</time>
      </trkpt>
      <trkpt lat="48.43259" lon="-4.62311">
        <ele>51</ele>
        <time>2024-02-12T00:10:01Z</time>
      </trkpt>
      <trkpt lat="48.43226" lon="-4.62331">
        <ele>55</ele>
        <time>2024-02-12T00:10:08Z</time>
      </trkpt>
      <trkpt lat="48.43141" lon="-4.62355">
        <ele>62</ele>
        <time>2024-02-12T00:10:23Z</time>
      </trkpt>
      <trkpt lat="48.4308" lon="-4.62369">
        <ele>64</ele>
        <time>2024-02-12T00:10:34Z</time>
      </trkpt>
      <trkpt lat="48.42977" lon="-4.62316">
        <ele>67</ele>
        <time>2024-02-12T00:10:53Z</time>
      </trkpt>
      <trkpt lat="48.4296" lon="-4.62304">
        <ele>67</ele>
        <time>2024-02-12T00:10:57Z</time>
      </trkpt>
      <trkpt lat="48.42955" lon="-4.62306">
        <ele>67</ele>
        <time>2024-02-12T00:10:58Z</time>
      </trkpt>
      <trkpt lat="48.42946" lon="-4.62295">
        <ele>67</ele>
        <time>2024-02-12T00:11:00Z</time>
      </trkpt>
      <trkpt lat="48.42944" lon="-4.62284">
        <ele>66</ele>
        <time>2024-02-12T00:11:01Z</time>
      </trkpt>
      <trkpt lat="48.42844" lon="-4.62345">
        <ele>73</ele>
        <time>2024-02-12T00:11:20Z</time>
      </trkpt>
      <trkpt lat="48.42727" lon="-4.62484">
        <ele>81</ele>
        <time>2024-02-12T00:11:47Z</time>
      </trkpt>
      <trkpt lat="48.42689" lon="-4.62524">
        <ele>83</ele>
        <time>2024-02-12T00:11:55Z</time>
      </trkpt>
      <trkpt lat="48.42599" lon="-4.62586">
        <ele>88</ele>
        <time>2024-02-12T00:12:13Z</time>
      </trkpt>
      <trkpt lat="48.42479" lon="-4.6265">
        <ele>86</ele>
        <time>2024-02-12T00:12:35Z</time>
      </trkpt>
      <trkpt lat="48.42479" lon="-4.62656">
        <ele>86</ele>
        <time>2024-02-12T00:12:36Z</time>
      </trkpt>
      <trkpt lat="48.42475" lon="-4.62663">
        <ele>87</ele>
        <time>2024-02-12T00:12:37Z</time>
      </trkpt>
      <trkpt lat="48.42477" lon="-4.62665">
        <ele>87</ele>
        <time>2024-02-12T00:12:37Z</time>
      </trkpt>
      <trkpt lat="48.42469" lon="-4.62662">
        <ele>86</ele>
        <time>2024-02-12T00:12:39Z</time>
      </trkpt>
      <trkpt lat="48.42466" lon="-4.62658">
        <ele>86</ele>
        <time>2024-02-12T00:12:40Z</time>
      </trkpt>
      <trkpt lat="48.42422" lon="-4.62693">
        <ele>86</ele>
        <time>2024-02-12T00:12:48Z</time>
      </trkpt>
      <trkpt lat="48.42388" lon="-4.62716">
        <ele>86</ele>
        <time>2024-02-12T00:12:55Z</time>
      </trkpt>
      <trkpt lat="48.42366" lon="-4.62727">
        <ele>87</ele>
        <time>2024-02-12T00:12:59Z</time>
      </trkpt>
      <trkpt lat="48.42331" lon="-4.62737">
        <ele>87</ele>
        <time>2024-02-12T00:13:06Z</time>
      </trkpt>
      <trkpt lat="48.42288" lon="-4.62738">
        <ele>88</ele>
        <time>2024-02-12T00:13:13Z</time>
      </trkpt>
      <trkpt lat="48.4227" lon="-4.62735">
        <ele>89</ele>
        <time>2024-02-12T00:13:16Z</time>
      </trkpt>
      <trkpt lat="48.4223" lon="-4.6272">
        <ele>90</ele>
        <time>2024-02-12T00:13:24Z</time>
      </trkpt>
      <trkpt lat="48.42129" lon="-4.62658">
        <ele>91</ele>
        <time>2024-02-12T00:13:43Z</time>
      </trkpt>
      <trkpt lat="48.42079" lon="-4.62645">
        <ele>91</ele>
        <time>2024-02-12T00:13:52Z</time>
      </trkpt>
      <trkpt lat="48.42072" lon="-4.62652">
        <ele>92</ele>
        <time>2024-02-12T00:13:54Z</time>
      </trkpt>
      <trkpt lat="48.42063" lon="-4.62655">
        <ele>92</ele>
        <time>2024-02-12T00:13:55Z</time>
      </trkpt>
      <trkpt lat="48.42051" lon="-4.62652">
        <ele>92</ele>
        <time>2024-02-12T00:13:58Z</time>
      </trkpt>
      <trkpt lat="48.42042" lon="-4.62642">
        <ele>92</ele>
        <time>2024-02-12T00:13:59Z</time>
      </trkpt>
      <trkpt lat="48.42036" lon="-4.62621">
        <ele>91</ele>
        <time>2024-02-12T00:14:02Z</time>
      </trkpt>
      <trkpt lat="48.4202" lon="-4.62598">
        <ele>91</ele>
        <time>2024-02-12T00:14:06Z</time>
      </trkpt>
      <trkpt lat="48.42001" lon="-4.62581">
        <ele>91</ele>
        <time>2024-02-12T00:14:10Z</time>
      </trkpt>
      <trkpt lat="48.41829" lon="-4.62493">
        <ele>87</ele>
        <time>2024-02-12T00:14:42Z</time>
      </trkpt>
      <trkpt lat="48.41734" lon="-4.62437">
        <ele>81</ele>
        <time>2024-02-12T00:15:01Z</time>
      </trkpt>
      <trkpt lat="48.41665" lon="-4.62402">
        <ele>78</ele>
        <time>2024-02-12T00:15:13Z</time>
      </trkpt>
      <trkpt lat="48.41354" lon="-4.62297">
        <ele>80</ele>
        <time>2024-02-12T00:16:10Z</time>
      </trkpt>
      <trkpt lat="48.41299" lon="-4.62285">
        <ele>82</ele>
        <time>2024-02-12T00:16:20Z</time>
      </trkpt>
      <trkpt lat="48.41102" lon="-4.62261">
        <ele>85</ele>
        <time>2024-02-12T00:16:55Z</time>
      </trkpt>
      <trkpt lat="48.41007" lon="-4.62239">
        <ele>85</ele>
        <time>2024-02-12T00:17:12Z</time>
      </trkpt>
      <trkpt lat="48.4091" lon="-4.622">
        <ele>84</ele>
        <time>2024-02-12T00:17:30Z</time>
      </trkpt>
      <trkpt lat="48.40803" lon="-4.62139">
        <ele>79</ele>
        <time>2024-02-12T00:17:51Z</time>
      </trkpt>
      <trkpt lat="48.40612" lon="-4.62019">
        <ele>78</ele>
        <time>2024-02-12T00:18:27Z</time>
      </trkpt>
      <trkpt lat="48.40468" lon="-4.61946">
        <ele>81</ele>
        <time>2024-02-12T00:18:54Z</time>
      </trkpt>
      <trkpt lat="48.40415" lon="-4.61912">
        <ele>79</ele>
        <time>2024-02-12T00:19:05Z</time>
      </trkpt>
      <trkpt lat="48.40315" lon="-4.61856">
        <ele>80</ele>
        <time>2024-02-12T00:19:24Z</time>
      </trkpt>
      <trkpt lat="48.4028" lon="-4.61842">
        <ele>79</ele>
        <time>2024-02-12T00:19:30Z</time>
      </trkpt>
      <trkpt lat="48.40248" lon="-4.61836">
        <ele>78</ele>
        <time>2024-02-12T00:19:36Z</time>
      </trkpt>
      <trkpt lat="48.40004" lon="-4.61828">
        <ele>76</ele>
        <time>2024-02-12T00:20:19Z</time>
      </trkpt>
      <trkpt lat="48.39972" lon="-4.61824">
        <ele>76</ele>
        <time>2024-02-12T00:20:25Z</time>
      </trkpt>
      <trkpt lat="48.39899" lon="-4.61801">
        <ele>75</ele>
        <time>2024-02-12T00:20:38Z</time>
      </trkpt>
      <trkpt lat="48.39827" lon="-4.61775">
        <ele>73</ele>
        <time>2024-02-12T00:20:51Z</time>
      </trkpt>
      <trkpt lat="48.39565" lon="-4.61677">
        <ele>71</ele>
        <time>2024-02-12T00:21:39Z</time>
      </trkpt>
      <trkpt lat="48.3939" lon="-4.61585">
        <ele>75</ele>
        <time>2024-02-12T00:22:12Z</time>
      </trkpt>
      <trkpt lat="48.39347" lon="-4.61568">
        <ele>76</ele>
        <time>2024-02-12T00:22:20Z</time>
      </trkpt>
      <trkpt lat="48.39289" lon="-4.61555">
        <ele>77</ele>
        <time>2024-02-12T00:22:31Z</time>
      </trkpt>
      <trkpt lat="48.39221" lon="-4.6156">
        <ele>78</ele>
        <time>2024-02-12T00:22:43Z</time>
      </trkpt>
      <trkpt lat="48.3919" lon="-4.61568">
        <ele>78</ele>
        <time>2024-02-12T00:22:48Z</time>
      </trkpt>
      <trkpt lat="48.39135" lon="-4.61591">
        <ele>79</ele>
        <time>2024-02-12T00:22:59Z</time>
      </trkpt>
      <trkpt lat="48.38961" lon="-4.61694">
        <ele>75</ele>
        <time>2024-02-12T00:23:32Z</time>
      </trkpt>
      <trkpt lat="48.38859" lon="-4.61781">
        <ele>76</ele>
        <time>2024-02-12T00:23:53Z</time>
      </trkpt>
      <trkpt lat="48.38704" lon="-4.61959">
        <ele>79</ele>
        <time>2024-02-12T00:24:27Z</time>
      </trkpt>
      <trkpt lat="48.38647" lon="-4.62005">
        <ele>80</ele>
        <time>2024-02-12T00:24:39Z</time>
      </trkpt>
      <trkpt lat="48.3853" lon="-4.62068">
        <ele>78</ele>
        <time>2024-02-12T00:25:01Z</time>
      </trkpt>
      <trkpt lat="48.3853" lon="-4.62079">
        <ele>78</ele>
        <time>2024-02-12T00:25:02Z</time>
      </trkpt>
      <trkpt lat="48.38525" lon="-4.62087">
        <ele>77</ele>
        <time>2024-02-12T00:25:04Z</time>
      </trkpt>
      <trkpt lat="48.38519" lon="-4.62089">
        <ele>77</ele>
        <time>2024-02-12T00:25:05Z</time>
      </trkpt>
      <trkpt lat="48.38515" lon="-4.62087">
        <ele>77</ele>
        <time>2024-02-12T00:25:06Z</time>
      </trkpt>
      <trkpt lat="48.3851" lon="-4.62078">
        <ele>77</ele>
        <time>2024-02-12T00:25:07Z</time>
      </trkpt>
      <trkpt lat="48.38465" lon="-4.62104">
        <ele>76</ele>
        <time>2024-02-12T00:25:15Z</time>
      </trkpt>
      <trkpt lat="48.38401" lon="-4.62136">
        <ele>75</ele>
        <time>2024-02-12T00:25:27Z</time>
      </trkpt>
      <trkpt lat="48.38332" lon="-4.62167">
        <ele>74</ele>
        <time>2024-02-12T00:25:40Z</time>
      </trkpt>
      <trkpt lat="48.38253" lon="-4.62191">
        <ele>73</ele>
        <time>2024-02-12T00:25:55Z</time>
      </trkpt>
      <trkpt lat="48.38244" lon="-4.62205">
        <ele>72</ele>
        <time>2024-02-12T00:25:57Z</time>
      </trkpt>
      <trkpt lat="48.38239" lon="-4.62224">
        <ele>72</ele>
        <time>2024-02-12T00:25:59Z</time>
      </trkpt>
      <trkpt lat="48.38231" lon="-4.62231">
        <ele>71</ele>
        <time>2024-02-12T00:26:01Z</time>
      </trkpt>
      <trkpt lat="48.38173" lon="-4.62223">
        <ele>68</ele>
        <time>2024-02-12T00:26:11Z</time>
      </trkpt>
      <trkpt lat="48.38166" lon="-4.62214">
        <ele>68</ele>
        <time>2024-02-12T00:26:13Z</time>
      </trkpt>
      <trkpt lat="48.38159" lon="-4.62197">
        <ele>68</ele>
        <time>2024-02-12T00:26:15Z</time>
      </trkpt>
      <trkpt lat="48.38153" lon="-4.62195">
        <ele>67</ele>
        <time>2024-02-12T00:26:16Z</time>
      </trkpt>
      <trkpt lat="48.38142" lon="-4.62198">
        <ele>66</ele>
        <time>2024-02-12T00:26:18Z</time>
      </trkpt>
      <trkpt lat="48.38118" lon="-4.62227">
        <ele>64</ele>
        <time>2024-02-12T00:26:24Z</time>
      </trkpt>
      <trkpt lat="48.38102" lon="-4.62237">
        <ele>63</ele>
        <time>2024-02-12T00:26:27Z</time>
      </trkpt>
      <trkpt lat="48.38066" lon="-4.62252">
        <ele>61</ele>
        <time>2024-02-12T00:26:34Z</time>
      </trkpt>
      <trkpt lat="48.38043" lon="-4.62266">
        <ele>60</ele>
        <time>2024-02-12T00:26:38Z</time>
      </trkpt>
      <trkpt lat="48.38027" lon="-4.62287">
        <ele>59</ele>
        <time>2024-02-12T00:26:42Z</time>
      </trkpt>
      <trkpt lat="48.38009" lon="-4.62317">
        <ele>58</ele>
        <time>2024-02-12T00:26:47Z</time>
      </trkpt>
      <trkpt lat="48.37962" lon="-4.62431">
        <ele>55</ele>
        <time>2024-02-12T00:27:02Z</time>
      </trkpt>
      <trkpt lat="48.37927" lon="-4.62504">
        <ele>53</ele>
        <time>2024-02-12T00:27:13Z</time>
      </trkpt>
      <trkpt lat="48.37844" lon="-4.62604">
        <ele>49</ele>
        <time>2024-02-12T00:27:32Z</time>
      </trkpt>
      <trkpt lat="48.37823" lon="-4.62633">
        <ele>47</ele>
        <time>2024-02-12T00:27:37Z</time>
      </trkpt>
      <trkpt lat="48.37794" lon="-4.62686">
        <ele>47</ele>
        <time>2024-02-12T00:27:45Z</time>
      </trkpt>
      <trkpt lat="48.37771" lon="-4.62738">
        <ele>48</ele>
        <time>2024-02-12T00:27:53Z</time>
      </trkpt>
      <trkpt lat="48.37758" lon="-4.62795">
        <ele>49</ele>
        <time>2024-02-12T00:28:00Z</time>
      </trkpt>
      <trkpt lat="48.37754" lon="-4.62826">
        <ele>49</ele>
        <time>2024-02-12T00:28:03Z</time>
      </trkpt>
      <trkpt lat="48.37753" lon="-4.62865">
        <ele>49</ele>
        <time>2024-02-12T00:28:08Z</time>
      </trkpt>
      <trkpt lat="48.37755" lon="-4.62903">
        <ele>50</ele>
        <time>2024-02-12T00:28:13Z</time>
      </trkpt>
      <trkpt lat="48.3776" lon="-4.62947">
        <ele>50</ele>
        <time>2024-02-12T00:28:18Z</time>
      </trkpt>
      <trkpt lat="48.37772" lon="-4.63015">
        <ele>50</ele>
        <time>2024-02-12T00:28:26Z</time>
      </trkpt>
      <trkpt lat="48.37789" lon="-4.63075">
        <ele>49</ele>
        <time>2024-02-12T00:28:34Z</time>
      </trkpt>
      <trkpt lat="48.37811" lon="-4.63138">
        <ele>48</ele>
        <time>2024-02-12T00:28:42Z</time>
      </trkpt>
      <trkpt lat="48.37884" lon="-4.63315">
        <ele>48</ele>
        <time>2024-02-12T00:29:07Z</time>
      </trkpt>
      <trkpt lat="48.379" lon="-4.63361">
        <ele>49</ele>
        <time>2024-02-12T00:29:13Z</time>
      </trkpt>
      <trkpt lat="48.37909" lon="-4.63405">
        <ele>49</ele>
        <time>2024-02-12T00:29:18Z</time>
      </trkpt>
      <trkpt lat="48.37916" lon="-4.63465">
        <ele>48</ele>
        <time>2024-02-12T00:29:26Z</time>
      </trkpt>
      <trkpt lat="48.37916" lon="-4.63518">
        <ele>48</ele>
        <time>2024-02-12T00:29:32Z</time>
      </trkpt>
      <trkpt lat="48.37911" lon="-4.63564">
        <ele>48</ele>
        <time>2024-02-12T00:29:37Z</time>
      </trkpt>
      <trkpt lat="48.37898" lon="-4.63627">
        <ele>47</ele>
        <time>2024-02-12T00:29:45Z</time>
      </trkpt>
      <trkpt lat="48.37879" lon="-4.63682">
        <ele>47</ele>
        <time>2024-02-12T00:29:53Z</time>
      </trkpt>
      <trkpt lat="48.37669" lon="-4.6413">
        <ele>50</ele>
        <time>2024-02-12T00:30:57Z</time>
      </trkpt>
      <trkpt lat="48.37658" lon="-4.6415">
        <ele>50</ele>
        <time>2024-02-12T00:31:00Z</time>
      </trkpt>
      <trkpt lat="48.37636" lon="-4.64176">
        <ele>51</ele>
        <time>2024-02-12T00:31:05Z</time>
      </trkpt>
      <trkpt lat="48.37635" lon="-4.64186">
        <ele>51</ele>
        <time>2024-02-12T00:31:07Z</time>
      </trkpt>
      <trkpt lat="48.37631" lon="-4.64187">
        <ele>51</ele>
        <time>2024-02-12T00:31:07Z</time>
      </trkpt>
      <trkpt lat="48.37629" lon="-4.64185">
        <ele>51</ele>
        <time>2024-02-12T00:31:08Z</time>
      </trkpt>
      <trkpt lat="48.37582" lon="-4.6423">
        <ele>52</ele>
        <time>2024-02-12T00:31:18Z</time>
      </trkpt>
      <trkpt lat="48.37533" lon="-4.64322">
        <ele>53</ele>
        <time>2024-02-12T00:31:32Z</time>
      </trkpt>
      <trkpt lat="48.3754" lon="-4.64349">
        <ele>53</ele>
        <time>2024-02-12T00:31:35Z</time>
      </trkpt>
      <trkpt lat="48.37542" lon="-4.64371">
        <ele>53</ele>
        <time>2024-02-12T00:31:38Z</time>
      </trkpt>
      <trkpt lat="48.37538" lon="-4.64397">
        <ele>54</ele>
        <time>2024-02-12T00:31:41Z</time>
      </trkpt>
      <trkpt lat="48.37508" lon="-4.64416">
        <ele>55</ele>
        <time>2024-02-12T00:31:47Z</time>
      </trkpt>
      <trkpt lat="48.3751" lon="-4.64434">
        <ele>55</ele>
        <time>2024-02-12T00:31:49Z</time>
      </trkpt>
      <trkpt lat="48.37528" lon="-4.6448">
        <ele>55</ele>
        <time>2024-02-12T00:31:55Z</time>
      </trkpt>
      <trkpt lat="48.37501" lon="-4.64497">
        <ele>56</ele>
        <time>2024-02-12T00:32:00Z</time>
      </trkpt>
      <trkpt lat="48.3748" lon="-4.64504">
        <ele>56</ele>
        <time>2024-02-12T00:32:04Z</time>
      </trkpt>
      <trkpt lat="48.37465" lon="-4.64506">
        <ele>57</ele>
        <time>2024-02-12T00:32:07Z</time>
      </trkpt>
      <trkpt lat="48.37452" lon="-4.64514">
        <ele>57</ele>
        <time>2024-02-12T00:32:09Z</time>
      </trkpt>
      <trkpt lat="48.37446" lon="-4.64505">
        <ele>57</ele>
        <time>2024-02-12T00:32:11Z</time>
      </trkpt>
      <trkpt lat="48.37435" lon="-4.64499">
        <ele>58</ele>
        <time>2024-02-12T00:32:13Z</time>
      </trkpt>
      <trkpt lat="48.37397" lon="-4.6447">
        <ele>58</ele>
        <time>2024-02-12T00:32:20Z</time>
      </trkpt>
      <trkpt lat="48.37355" lon="-4.64432">
        <ele>57</ele>
        <time>2024-02-12T00:32:29Z</time>
      </trkpt>
      <trkpt lat="48.37328" lon="-4.6441">
        <ele>56</ele>
        <time>2024-02-12T00:32:35Z</time>
      </trkpt>
      <trkpt lat="48.37323" lon="-4.64411">
        <ele>56</ele>
        <time>2024-02-12T00:32:36Z</time>
      </trkpt>
      <trkpt lat="48.37319" lon="-4.64405">
        <ele>56</ele>
        <time>2024-02-12T00:32:37Z</time>
      </trkpt>
      <trkpt lat="48.37299" lon="-4.64406">
        <ele>56</ele>
        <time>2024-02-12T00:32:40Z</time>
      </trkpt>
      <trkpt lat="48.3725" lon="-4.6439">
        <ele>56</ele>
        <time>2024-02-12T00:32:49Z</time>
      </trkpt>
      <trkpt lat="48.37177" lon="-4.64363">
        <ele>57</ele>
        <time>2024-02-12T00:33:02Z</time>
      </trkpt>
      <trkpt lat="48.37127" lon="-4.64341">
        <ele>57</ele>
        <time>2024-02-12T00:33:12Z</time>
      </trkpt>
    </trkseg>
  </trk>
</gpx>